<?xml version="1.0" encoding="UTF-8" standalone="no" ?>
<gpx xmlns="http://www.topografix.com/GPX/1/1" xmlns:xsi="http://www.w3.org/2001/XMLSchema-instance" xsi:schemaLocation="http://www.topografix.com/GPX/1/1 http://www.topografix.com/GPX/1/1/gpx.xsd" version="1.1" creator="VisuGPX - https://www.visugpx.com">
  <metadata>
    <name>Run-2010 12 Mémorial</name>
    <desc><![CDATA[Petite remise en jambe avec Filou autour du mémorial de caen]]></desc>
  </metadata>
  <trk>
    <name><![CDATA[Track 2010-12-10 18:04]]></name>
    <trkseg>
      <trkpt lat="49.2121" lon="-0.37077">
        <ele>121</ele>
        <time>2010-12-10T17:05:39Z</time>
      </trkpt>
      <trkpt lat="49.21209" lon="-0.37054">
        <ele>109</ele>
        <time>2010-12-10T17:05:51Z</time>
      </trkpt>
      <trkpt lat="49.21211" lon="-0.37064">
        <ele>102</ele>
        <time>2010-12-10T17:06:22Z</time>
      </trkpt>
      <trkpt lat="49.21207" lon="-0.37069">
        <ele>102</ele>
        <time>2010-12-10T17:06:25Z</time>
      </trkpt>
      <trkpt lat="49.21203" lon="-0.37071">
        <ele>102</ele>
        <time>2010-12-10T17:06:28Z</time>
      </trkpt>
      <trkpt lat="49.21199" lon="-0.37074">
        <ele>102</ele>
        <time>2010-12-10T17:06:30Z</time>
      </trkpt>
      <trkpt lat="49.21193" lon="-0.37077">
        <ele>103</ele>
        <time>2010-12-10T17:06:32Z</time>
      </trkpt>
      <trkpt lat="49.21188" lon="-0.3708">
        <ele>103</ele>
        <time>2010-12-10T17:06:34Z</time>
      </trkpt>
      <trkpt lat="49.21184" lon="-0.37082">
        <ele>103</ele>
        <time>2010-12-10T17:06:36Z</time>
      </trkpt>
      <trkpt lat="49.21179" lon="-0.37083">
        <ele>103</ele>
        <time>2010-12-10T17:06:38Z</time>
      </trkpt>
      <trkpt lat="49.21173" lon="-0.37084">
        <ele>103</ele>
        <time>2010-12-10T17:06:40Z</time>
      </trkpt>
      <trkpt lat="49.21169" lon="-0.37084">
        <ele>103</ele>
        <time>2010-12-10T17:06:42Z</time>
      </trkpt>
      <trkpt lat="49.21163" lon="-0.37085">
        <ele>104</ele>
        <time>2010-12-10T17:06:44Z</time>
      </trkpt>
      <trkpt lat="49.21157" lon="-0.37085">
        <ele>104</ele>
        <time>2010-12-10T17:06:46Z</time>
      </trkpt>
      <trkpt lat="49.21152" lon="-0.37085">
        <ele>104</ele>
        <time>2010-12-10T17:06:48Z</time>
      </trkpt>
      <trkpt lat="49.21147" lon="-0.37085">
        <ele>104</ele>
        <time>2010-12-10T17:06:50Z</time>
      </trkpt>
      <trkpt lat="49.21142" lon="-0.37083">
        <ele>104</ele>
        <time>2010-12-10T17:06:52Z</time>
      </trkpt>
      <trkpt lat="49.21138" lon="-0.37078">
        <ele>104</ele>
        <time>2010-12-10T17:06:54Z</time>
      </trkpt>
      <trkpt lat="49.21135" lon="-0.37072">
        <ele>104</ele>
        <time>2010-12-10T17:06:56Z</time>
      </trkpt>
      <trkpt lat="49.21131" lon="-0.37067">
        <ele>104</ele>
        <time>2010-12-10T17:06:58Z</time>
      </trkpt>
      <trkpt lat="49.21127" lon="-0.37063">
        <ele>104</ele>
        <time>2010-12-10T17:07:00Z</time>
      </trkpt>
      <trkpt lat="49.21121" lon="-0.37064">
        <ele>104</ele>
        <time>2010-12-10T17:07:03Z</time>
      </trkpt>
      <trkpt lat="49.21116" lon="-0.3706">
        <ele>104</ele>
        <time>2010-12-10T17:07:06Z</time>
      </trkpt>
      <trkpt lat="49.21113" lon="-0.37053">
        <ele>104</ele>
        <time>2010-12-10T17:07:09Z</time>
      </trkpt>
      <trkpt lat="49.21111" lon="-0.37046">
        <ele>104</ele>
        <time>2010-12-10T17:07:11Z</time>
      </trkpt>
      <trkpt lat="49.21108" lon="-0.37039">
        <ele>104</ele>
        <time>2010-12-10T17:07:13Z</time>
      </trkpt>
      <trkpt lat="49.21106" lon="-0.37033">
        <ele>104</ele>
        <time>2010-12-10T17:07:15Z</time>
      </trkpt>
      <trkpt lat="49.21103" lon="-0.37027">
        <ele>104</ele>
        <time>2010-12-10T17:07:17Z</time>
      </trkpt>
      <trkpt lat="49.21099" lon="-0.37023">
        <ele>105</ele>
        <time>2010-12-10T17:07:19Z</time>
      </trkpt>
      <trkpt lat="49.21094" lon="-0.37021">
        <ele>105</ele>
        <time>2010-12-10T17:07:21Z</time>
      </trkpt>
      <trkpt lat="49.21088" lon="-0.37023">
        <ele>106</ele>
        <time>2010-12-10T17:07:24Z</time>
      </trkpt>
      <trkpt lat="49.21083" lon="-0.37025">
        <ele>106</ele>
        <time>2010-12-10T17:07:26Z</time>
      </trkpt>
      <trkpt lat="49.21078" lon="-0.37029">
        <ele>105</ele>
        <time>2010-12-10T17:07:28Z</time>
      </trkpt>
      <trkpt lat="49.21074" lon="-0.37033">
        <ele>106</ele>
        <time>2010-12-10T17:07:30Z</time>
      </trkpt>
      <trkpt lat="49.21068" lon="-0.37037">
        <ele>106</ele>
        <time>2010-12-10T17:07:32Z</time>
      </trkpt>
      <trkpt lat="49.21064" lon="-0.37041">
        <ele>106</ele>
        <time>2010-12-10T17:07:34Z</time>
      </trkpt>
      <trkpt lat="49.21059" lon="-0.37045">
        <ele>106</ele>
        <time>2010-12-10T17:07:36Z</time>
      </trkpt>
      <trkpt lat="49.21054" lon="-0.37048">
        <ele>105</ele>
        <time>2010-12-10T17:07:38Z</time>
      </trkpt>
      <trkpt lat="49.21049" lon="-0.37049">
        <ele>106</ele>
        <time>2010-12-10T17:07:40Z</time>
      </trkpt>
      <trkpt lat="49.21045" lon="-0.37051">
        <ele>105</ele>
        <time>2010-12-10T17:07:42Z</time>
      </trkpt>
      <trkpt lat="49.21042" lon="-0.37061">
        <ele>105</ele>
        <time>2010-12-10T17:07:45Z</time>
      </trkpt>
      <trkpt lat="49.2104" lon="-0.3707">
        <ele>105</ele>
        <time>2010-12-10T17:07:48Z</time>
      </trkpt>
      <trkpt lat="49.21037" lon="-0.37076">
        <ele>104</ele>
        <time>2010-12-10T17:07:50Z</time>
      </trkpt>
      <trkpt lat="49.21033" lon="-0.3708">
        <ele>105</ele>
        <time>2010-12-10T17:07:52Z</time>
      </trkpt>
      <trkpt lat="49.21028" lon="-0.37085">
        <ele>104</ele>
        <time>2010-12-10T17:07:54Z</time>
      </trkpt>
      <trkpt lat="49.21024" lon="-0.3709">
        <ele>104</ele>
        <time>2010-12-10T17:07:56Z</time>
      </trkpt>
      <trkpt lat="49.2102" lon="-0.37093">
        <ele>104</ele>
        <time>2010-12-10T17:07:58Z</time>
      </trkpt>
      <trkpt lat="49.21015" lon="-0.37096">
        <ele>104</ele>
        <time>2010-12-10T17:08:00Z</time>
      </trkpt>
      <trkpt lat="49.2101" lon="-0.37098">
        <ele>104</ele>
        <time>2010-12-10T17:08:02Z</time>
      </trkpt>
      <trkpt lat="49.21005" lon="-0.371">
        <ele>104</ele>
        <time>2010-12-10T17:08:04Z</time>
      </trkpt>
      <trkpt lat="49.21001" lon="-0.37102">
        <ele>104</ele>
        <time>2010-12-10T17:08:06Z</time>
      </trkpt>
      <trkpt lat="49.20996" lon="-0.37104">
        <ele>104</ele>
        <time>2010-12-10T17:08:08Z</time>
      </trkpt>
      <trkpt lat="49.20991" lon="-0.37106">
        <ele>104</ele>
        <time>2010-12-10T17:08:10Z</time>
      </trkpt>
      <trkpt lat="49.20988" lon="-0.37113">
        <ele>104</ele>
        <time>2010-12-10T17:08:12Z</time>
      </trkpt>
      <trkpt lat="49.20986" lon="-0.3712">
        <ele>104</ele>
        <time>2010-12-10T17:08:14Z</time>
      </trkpt>
      <trkpt lat="49.20986" lon="-0.37128">
        <ele>104</ele>
        <time>2010-12-10T17:08:16Z</time>
      </trkpt>
      <trkpt lat="49.20985" lon="-0.37137">
        <ele>104</ele>
        <time>2010-12-10T17:08:18Z</time>
      </trkpt>
      <trkpt lat="49.20983" lon="-0.37144">
        <ele>104</ele>
        <time>2010-12-10T17:08:20Z</time>
      </trkpt>
      <trkpt lat="49.20981" lon="-0.37151">
        <ele>104</ele>
        <time>2010-12-10T17:08:22Z</time>
      </trkpt>
      <trkpt lat="49.2098" lon="-0.37159">
        <ele>104</ele>
        <time>2010-12-10T17:08:24Z</time>
      </trkpt>
      <trkpt lat="49.20978" lon="-0.37166">
        <ele>105</ele>
        <time>2010-12-10T17:08:26Z</time>
      </trkpt>
      <trkpt lat="49.20976" lon="-0.37173">
        <ele>105</ele>
        <time>2010-12-10T17:08:28Z</time>
      </trkpt>
      <trkpt lat="49.20974" lon="-0.3718">
        <ele>104</ele>
        <time>2010-12-10T17:08:30Z</time>
      </trkpt>
      <trkpt lat="49.20972" lon="-0.37187">
        <ele>105</ele>
        <time>2010-12-10T17:08:32Z</time>
      </trkpt>
      <trkpt lat="49.2097" lon="-0.37195">
        <ele>105</ele>
        <time>2010-12-10T17:08:34Z</time>
      </trkpt>
      <trkpt lat="49.20968" lon="-0.37202">
        <ele>104</ele>
        <time>2010-12-10T17:08:36Z</time>
      </trkpt>
      <trkpt lat="49.20968" lon="-0.3721">
        <ele>104</ele>
        <time>2010-12-10T17:08:38Z</time>
      </trkpt>
      <trkpt lat="49.20968" lon="-0.37219">
        <ele>104</ele>
        <time>2010-12-10T17:08:41Z</time>
      </trkpt>
      <trkpt lat="49.20969" lon="-0.37227">
        <ele>104</ele>
        <time>2010-12-10T17:08:45Z</time>
      </trkpt>
      <trkpt lat="49.20967" lon="-0.37234">
        <ele>105</ele>
        <time>2010-12-10T17:08:47Z</time>
      </trkpt>
      <trkpt lat="49.20964" lon="-0.37241">
        <ele>104</ele>
        <time>2010-12-10T17:08:49Z</time>
      </trkpt>
      <trkpt lat="49.20961" lon="-0.37247">
        <ele>104</ele>
        <time>2010-12-10T17:08:51Z</time>
      </trkpt>
      <trkpt lat="49.20959" lon="-0.37254">
        <ele>104</ele>
        <time>2010-12-10T17:08:53Z</time>
      </trkpt>
      <trkpt lat="49.20958" lon="-0.37262">
        <ele>104</ele>
        <time>2010-12-10T17:08:55Z</time>
      </trkpt>
      <trkpt lat="49.20957" lon="-0.3727">
        <ele>104</ele>
        <time>2010-12-10T17:08:57Z</time>
      </trkpt>
      <trkpt lat="49.20955" lon="-0.37278">
        <ele>104</ele>
        <time>2010-12-10T17:08:59Z</time>
      </trkpt>
      <trkpt lat="49.20954" lon="-0.37285">
        <ele>104</ele>
        <time>2010-12-10T17:09:01Z</time>
      </trkpt>
      <trkpt lat="49.20953" lon="-0.37293">
        <ele>104</ele>
        <time>2010-12-10T17:09:03Z</time>
      </trkpt>
      <trkpt lat="49.20951" lon="-0.373">
        <ele>104</ele>
        <time>2010-12-10T17:09:05Z</time>
      </trkpt>
      <trkpt lat="49.2095" lon="-0.37307">
        <ele>104</ele>
        <time>2010-12-10T17:09:07Z</time>
      </trkpt>
      <trkpt lat="49.20949" lon="-0.37315">
        <ele>104</ele>
        <time>2010-12-10T17:09:09Z</time>
      </trkpt>
      <trkpt lat="49.20947" lon="-0.37323">
        <ele>104</ele>
        <time>2010-12-10T17:09:11Z</time>
      </trkpt>
      <trkpt lat="49.20946" lon="-0.3733">
        <ele>104</ele>
        <time>2010-12-10T17:09:13Z</time>
      </trkpt>
      <trkpt lat="49.20944" lon="-0.37338">
        <ele>105</ele>
        <time>2010-12-10T17:09:15Z</time>
      </trkpt>
      <trkpt lat="49.20943" lon="-0.37346">
        <ele>105</ele>
        <time>2010-12-10T17:09:17Z</time>
      </trkpt>
      <trkpt lat="49.20942" lon="-0.37354">
        <ele>105</ele>
        <time>2010-12-10T17:09:19Z</time>
      </trkpt>
      <trkpt lat="49.20941" lon="-0.37362">
        <ele>104</ele>
        <time>2010-12-10T17:09:21Z</time>
      </trkpt>
      <trkpt lat="49.20939" lon="-0.3737">
        <ele>105</ele>
        <time>2010-12-10T17:09:23Z</time>
      </trkpt>
      <trkpt lat="49.20938" lon="-0.37378">
        <ele>105</ele>
        <time>2010-12-10T17:09:25Z</time>
      </trkpt>
      <trkpt lat="49.20937" lon="-0.37385">
        <ele>105</ele>
        <time>2010-12-10T17:09:27Z</time>
      </trkpt>
      <trkpt lat="49.20936" lon="-0.37392">
        <ele>105</ele>
        <time>2010-12-10T17:09:29Z</time>
      </trkpt>
      <trkpt lat="49.20934" lon="-0.37399">
        <ele>105</ele>
        <time>2010-12-10T17:09:31Z</time>
      </trkpt>
      <trkpt lat="49.20932" lon="-0.37407">
        <ele>105</ele>
        <time>2010-12-10T17:09:33Z</time>
      </trkpt>
      <trkpt lat="49.20931" lon="-0.37414">
        <ele>105</ele>
        <time>2010-12-10T17:09:35Z</time>
      </trkpt>
      <trkpt lat="49.2093" lon="-0.37422">
        <ele>105</ele>
        <time>2010-12-10T17:09:37Z</time>
      </trkpt>
      <trkpt lat="49.20929" lon="-0.37429">
        <ele>105</ele>
        <time>2010-12-10T17:09:39Z</time>
      </trkpt>
      <trkpt lat="49.20927" lon="-0.37437">
        <ele>105</ele>
        <time>2010-12-10T17:09:41Z</time>
      </trkpt>
      <trkpt lat="49.20926" lon="-0.37445">
        <ele>106</ele>
        <time>2010-12-10T17:09:43Z</time>
      </trkpt>
      <trkpt lat="49.20925" lon="-0.37452">
        <ele>106</ele>
        <time>2010-12-10T17:09:45Z</time>
      </trkpt>
      <trkpt lat="49.20923" lon="-0.3746">
        <ele>106</ele>
        <time>2010-12-10T17:09:47Z</time>
      </trkpt>
      <trkpt lat="49.20922" lon="-0.37468">
        <ele>106</ele>
        <time>2010-12-10T17:09:49Z</time>
      </trkpt>
      <trkpt lat="49.20921" lon="-0.37475">
        <ele>105</ele>
        <time>2010-12-10T17:09:51Z</time>
      </trkpt>
      <trkpt lat="49.2092" lon="-0.37483">
        <ele>106</ele>
        <time>2010-12-10T17:09:53Z</time>
      </trkpt>
      <trkpt lat="49.20918" lon="-0.37491">
        <ele>106</ele>
        <time>2010-12-10T17:09:55Z</time>
      </trkpt>
      <trkpt lat="49.20916" lon="-0.37498">
        <ele>106</ele>
        <time>2010-12-10T17:09:57Z</time>
      </trkpt>
      <trkpt lat="49.20915" lon="-0.37505">
        <ele>106</ele>
        <time>2010-12-10T17:09:59Z</time>
      </trkpt>
      <trkpt lat="49.20913" lon="-0.37512">
        <ele>106</ele>
        <time>2010-12-10T17:10:01Z</time>
      </trkpt>
      <trkpt lat="49.20912" lon="-0.3752">
        <ele>106</ele>
        <time>2010-12-10T17:10:03Z</time>
      </trkpt>
      <trkpt lat="49.20909" lon="-0.37527">
        <ele>106</ele>
        <time>2010-12-10T17:10:05Z</time>
      </trkpt>
      <trkpt lat="49.20908" lon="-0.37534">
        <ele>106</ele>
        <time>2010-12-10T17:10:07Z</time>
      </trkpt>
      <trkpt lat="49.20907" lon="-0.37542">
        <ele>106</ele>
        <time>2010-12-10T17:10:09Z</time>
      </trkpt>
      <trkpt lat="49.20905" lon="-0.37549">
        <ele>106</ele>
        <time>2010-12-10T17:10:11Z</time>
      </trkpt>
      <trkpt lat="49.20904" lon="-0.37557">
        <ele>106</ele>
        <time>2010-12-10T17:10:13Z</time>
      </trkpt>
      <trkpt lat="49.20902" lon="-0.37564">
        <ele>106</ele>
        <time>2010-12-10T17:10:15Z</time>
      </trkpt>
      <trkpt lat="49.209" lon="-0.3757">
        <ele>107</ele>
        <time>2010-12-10T17:10:17Z</time>
      </trkpt>
      <trkpt lat="49.20899" lon="-0.37578">
        <ele>107</ele>
        <time>2010-12-10T17:10:19Z</time>
      </trkpt>
      <trkpt lat="49.20897" lon="-0.37585">
        <ele>107</ele>
        <time>2010-12-10T17:10:21Z</time>
      </trkpt>
      <trkpt lat="49.20895" lon="-0.37592">
        <ele>107</ele>
        <time>2010-12-10T17:10:23Z</time>
      </trkpt>
      <trkpt lat="49.20893" lon="-0.376">
        <ele>107</ele>
        <time>2010-12-10T17:10:25Z</time>
      </trkpt>
      <trkpt lat="49.20892" lon="-0.37607">
        <ele>107</ele>
        <time>2010-12-10T17:10:27Z</time>
      </trkpt>
      <trkpt lat="49.2089" lon="-0.37614">
        <ele>107</ele>
        <time>2010-12-10T17:10:29Z</time>
      </trkpt>
      <trkpt lat="49.20888" lon="-0.37622">
        <ele>107</ele>
        <time>2010-12-10T17:10:31Z</time>
      </trkpt>
      <trkpt lat="49.20887" lon="-0.3763">
        <ele>107</ele>
        <time>2010-12-10T17:10:33Z</time>
      </trkpt>
      <trkpt lat="49.20885" lon="-0.37637">
        <ele>107</ele>
        <time>2010-12-10T17:10:35Z</time>
      </trkpt>
      <trkpt lat="49.20885" lon="-0.37645">
        <ele>107</ele>
        <time>2010-12-10T17:10:37Z</time>
      </trkpt>
      <trkpt lat="49.20886" lon="-0.37652">
        <ele>107</ele>
        <time>2010-12-10T17:10:39Z</time>
      </trkpt>
      <trkpt lat="49.20888" lon="-0.3766">
        <ele>107</ele>
        <time>2010-12-10T17:10:41Z</time>
      </trkpt>
      <trkpt lat="49.20889" lon="-0.37668">
        <ele>107</ele>
        <time>2010-12-10T17:10:43Z</time>
      </trkpt>
      <trkpt lat="49.20891" lon="-0.37675">
        <ele>107</ele>
        <time>2010-12-10T17:10:46Z</time>
      </trkpt>
      <trkpt lat="49.20888" lon="-0.37681">
        <ele>107</ele>
        <time>2010-12-10T17:10:54Z</time>
      </trkpt>
      <trkpt lat="49.20883" lon="-0.3768">
        <ele>107</ele>
        <time>2010-12-10T17:10:56Z</time>
      </trkpt>
      <trkpt lat="49.20877" lon="-0.37682">
        <ele>107</ele>
        <time>2010-12-10T17:10:59Z</time>
      </trkpt>
      <trkpt lat="49.20874" lon="-0.37688">
        <ele>106</ele>
        <time>2010-12-10T17:11:01Z</time>
      </trkpt>
      <trkpt lat="49.20872" lon="-0.37696">
        <ele>107</ele>
        <time>2010-12-10T17:11:03Z</time>
      </trkpt>
      <trkpt lat="49.20869" lon="-0.37703">
        <ele>107</ele>
        <time>2010-12-10T17:11:05Z</time>
      </trkpt>
      <trkpt lat="49.20868" lon="-0.3771">
        <ele>106</ele>
        <time>2010-12-10T17:11:07Z</time>
      </trkpt>
      <trkpt lat="49.20866" lon="-0.37718">
        <ele>106</ele>
        <time>2010-12-10T17:11:09Z</time>
      </trkpt>
      <trkpt lat="49.20865" lon="-0.37726">
        <ele>106</ele>
        <time>2010-12-10T17:11:11Z</time>
      </trkpt>
      <trkpt lat="49.20864" lon="-0.37733">
        <ele>106</ele>
        <time>2010-12-10T17:11:13Z</time>
      </trkpt>
      <trkpt lat="49.20862" lon="-0.3774">
        <ele>106</ele>
        <time>2010-12-10T17:11:15Z</time>
      </trkpt>
      <trkpt lat="49.2086" lon="-0.37748">
        <ele>106</ele>
        <time>2010-12-10T17:11:17Z</time>
      </trkpt>
      <trkpt lat="49.20858" lon="-0.37755">
        <ele>106</ele>
        <time>2010-12-10T17:11:19Z</time>
      </trkpt>
      <trkpt lat="49.20856" lon="-0.37763">
        <ele>106</ele>
        <time>2010-12-10T17:11:21Z</time>
      </trkpt>
      <trkpt lat="49.20853" lon="-0.37772">
        <ele>106</ele>
        <time>2010-12-10T17:11:24Z</time>
      </trkpt>
      <trkpt lat="49.20851" lon="-0.37779">
        <ele>106</ele>
        <time>2010-12-10T17:11:26Z</time>
      </trkpt>
      <trkpt lat="49.20847" lon="-0.37787">
        <ele>106</ele>
        <time>2010-12-10T17:11:29Z</time>
      </trkpt>
      <trkpt lat="49.20844" lon="-0.37793">
        <ele>106</ele>
        <time>2010-12-10T17:11:31Z</time>
      </trkpt>
      <trkpt lat="49.20842" lon="-0.378">
        <ele>106</ele>
        <time>2010-12-10T17:11:33Z</time>
      </trkpt>
      <trkpt lat="49.2084" lon="-0.37806">
        <ele>105</ele>
        <time>2010-12-10T17:11:35Z</time>
      </trkpt>
      <trkpt lat="49.20838" lon="-0.37813">
        <ele>105</ele>
        <time>2010-12-10T17:11:37Z</time>
      </trkpt>
      <trkpt lat="49.20835" lon="-0.3782">
        <ele>105</ele>
        <time>2010-12-10T17:11:39Z</time>
      </trkpt>
      <trkpt lat="49.20833" lon="-0.37827">
        <ele>105</ele>
        <time>2010-12-10T17:11:41Z</time>
      </trkpt>
      <trkpt lat="49.2083" lon="-0.37834">
        <ele>106</ele>
        <time>2010-12-10T17:11:43Z</time>
      </trkpt>
      <trkpt lat="49.20827" lon="-0.37841">
        <ele>106</ele>
        <time>2010-12-10T17:11:45Z</time>
      </trkpt>
      <trkpt lat="49.20825" lon="-0.37847">
        <ele>106</ele>
        <time>2010-12-10T17:11:47Z</time>
      </trkpt>
      <trkpt lat="49.20823" lon="-0.37853">
        <ele>105</ele>
        <time>2010-12-10T17:11:49Z</time>
      </trkpt>
      <trkpt lat="49.2082" lon="-0.3786">
        <ele>106</ele>
        <time>2010-12-10T17:11:51Z</time>
      </trkpt>
      <trkpt lat="49.20817" lon="-0.37866">
        <ele>106</ele>
        <time>2010-12-10T17:11:53Z</time>
      </trkpt>
      <trkpt lat="49.20814" lon="-0.37873">
        <ele>106</ele>
        <time>2010-12-10T17:11:55Z</time>
      </trkpt>
      <trkpt lat="49.20812" lon="-0.3788">
        <ele>106</ele>
        <time>2010-12-10T17:11:57Z</time>
      </trkpt>
      <trkpt lat="49.20809" lon="-0.37886">
        <ele>106</ele>
        <time>2010-12-10T17:11:59Z</time>
      </trkpt>
      <trkpt lat="49.20806" lon="-0.37893">
        <ele>106</ele>
        <time>2010-12-10T17:12:01Z</time>
      </trkpt>
      <trkpt lat="49.20804" lon="-0.37899">
        <ele>106</ele>
        <time>2010-12-10T17:12:03Z</time>
      </trkpt>
      <trkpt lat="49.20801" lon="-0.37906">
        <ele>106</ele>
        <time>2010-12-10T17:12:05Z</time>
      </trkpt>
      <trkpt lat="49.20798" lon="-0.37912">
        <ele>106</ele>
        <time>2010-12-10T17:12:07Z</time>
      </trkpt>
      <trkpt lat="49.20795" lon="-0.37919">
        <ele>106</ele>
        <time>2010-12-10T17:12:09Z</time>
      </trkpt>
      <trkpt lat="49.20791" lon="-0.37925">
        <ele>106</ele>
        <time>2010-12-10T17:12:11Z</time>
      </trkpt>
      <trkpt lat="49.20789" lon="-0.37932">
        <ele>106</ele>
        <time>2010-12-10T17:12:13Z</time>
      </trkpt>
      <trkpt lat="49.20786" lon="-0.37938">
        <ele>106</ele>
        <time>2010-12-10T17:12:15Z</time>
      </trkpt>
      <trkpt lat="49.20782" lon="-0.37946">
        <ele>106</ele>
        <time>2010-12-10T17:12:18Z</time>
      </trkpt>
      <trkpt lat="49.20779" lon="-0.37953">
        <ele>106</ele>
        <time>2010-12-10T17:12:20Z</time>
      </trkpt>
      <trkpt lat="49.20776" lon="-0.37959">
        <ele>106</ele>
        <time>2010-12-10T17:12:22Z</time>
      </trkpt>
      <trkpt lat="49.20772" lon="-0.37966">
        <ele>106</ele>
        <time>2010-12-10T17:12:24Z</time>
      </trkpt>
      <trkpt lat="49.20769" lon="-0.37972">
        <ele>106</ele>
        <time>2010-12-10T17:12:26Z</time>
      </trkpt>
      <trkpt lat="49.20766" lon="-0.37978">
        <ele>106</ele>
        <time>2010-12-10T17:12:28Z</time>
      </trkpt>
      <trkpt lat="49.20763" lon="-0.37983">
        <ele>106</ele>
        <time>2010-12-10T17:12:30Z</time>
      </trkpt>
      <trkpt lat="49.20759" lon="-0.3799">
        <ele>106</ele>
        <time>2010-12-10T17:12:32Z</time>
      </trkpt>
      <trkpt lat="49.20756" lon="-0.37995">
        <ele>106</ele>
        <time>2010-12-10T17:12:34Z</time>
      </trkpt>
      <trkpt lat="49.20753" lon="-0.38">
        <ele>106</ele>
        <time>2010-12-10T17:12:36Z</time>
      </trkpt>
      <trkpt lat="49.2075" lon="-0.38007">
        <ele>106</ele>
        <time>2010-12-10T17:12:38Z</time>
      </trkpt>
      <trkpt lat="49.20746" lon="-0.38013">
        <ele>107</ele>
        <time>2010-12-10T17:12:40Z</time>
      </trkpt>
      <trkpt lat="49.20743" lon="-0.38019">
        <ele>107</ele>
        <time>2010-12-10T17:12:42Z</time>
      </trkpt>
      <trkpt lat="49.20739" lon="-0.38025">
        <ele>107</ele>
        <time>2010-12-10T17:12:44Z</time>
      </trkpt>
      <trkpt lat="49.20736" lon="-0.38031">
        <ele>107</ele>
        <time>2010-12-10T17:12:46Z</time>
      </trkpt>
      <trkpt lat="49.20733" lon="-0.38036">
        <ele>107</ele>
        <time>2010-12-10T17:12:48Z</time>
      </trkpt>
      <trkpt lat="49.2073" lon="-0.38044">
        <ele>107</ele>
        <time>2010-12-10T17:12:51Z</time>
      </trkpt>
      <trkpt lat="49.20726" lon="-0.38049">
        <ele>106</ele>
        <time>2010-12-10T17:12:53Z</time>
      </trkpt>
      <trkpt lat="49.20723" lon="-0.38055">
        <ele>106</ele>
        <time>2010-12-10T17:12:55Z</time>
      </trkpt>
      <trkpt lat="49.2072" lon="-0.38063">
        <ele>106</ele>
        <time>2010-12-10T17:12:58Z</time>
      </trkpt>
      <trkpt lat="49.20716" lon="-0.38069">
        <ele>106</ele>
        <time>2010-12-10T17:13:00Z</time>
      </trkpt>
      <trkpt lat="49.20715" lon="-0.38075">
        <ele>106</ele>
        <time>2010-12-10T17:13:02Z</time>
      </trkpt>
      <trkpt lat="49.20714" lon="-0.38082">
        <ele>106</ele>
        <time>2010-12-10T17:13:04Z</time>
      </trkpt>
      <trkpt lat="49.20713" lon="-0.3809">
        <ele>106</ele>
        <time>2010-12-10T17:13:06Z</time>
      </trkpt>
      <trkpt lat="49.20711" lon="-0.38098">
        <ele>106</ele>
        <time>2010-12-10T17:13:08Z</time>
      </trkpt>
      <trkpt lat="49.20708" lon="-0.38104">
        <ele>107</ele>
        <time>2010-12-10T17:13:10Z</time>
      </trkpt>
      <trkpt lat="49.20704" lon="-0.38109">
        <ele>107</ele>
        <time>2010-12-10T17:13:12Z</time>
      </trkpt>
      <trkpt lat="49.20701" lon="-0.38118">
        <ele>107</ele>
        <time>2010-12-10T17:13:15Z</time>
      </trkpt>
      <trkpt lat="49.20698" lon="-0.38123">
        <ele>107</ele>
        <time>2010-12-10T17:13:17Z</time>
      </trkpt>
      <trkpt lat="49.20694" lon="-0.38129">
        <ele>107</ele>
        <time>2010-12-10T17:13:19Z</time>
      </trkpt>
      <trkpt lat="49.2069" lon="-0.38135">
        <ele>108</ele>
        <time>2010-12-10T17:13:21Z</time>
      </trkpt>
      <trkpt lat="49.20687" lon="-0.3814">
        <ele>108</ele>
        <time>2010-12-10T17:13:23Z</time>
      </trkpt>
      <trkpt lat="49.20683" lon="-0.38147">
        <ele>108</ele>
        <time>2010-12-10T17:13:25Z</time>
      </trkpt>
      <trkpt lat="49.20679" lon="-0.38155">
        <ele>108</ele>
        <time>2010-12-10T17:13:28Z</time>
      </trkpt>
      <trkpt lat="49.20676" lon="-0.38161">
        <ele>109</ele>
        <time>2010-12-10T17:13:30Z</time>
      </trkpt>
      <trkpt lat="49.20674" lon="-0.38168">
        <ele>109</ele>
        <time>2010-12-10T17:13:32Z</time>
      </trkpt>
      <trkpt lat="49.20671" lon="-0.38173">
        <ele>109</ele>
        <time>2010-12-10T17:13:34Z</time>
      </trkpt>
      <trkpt lat="49.20666" lon="-0.38181">
        <ele>109</ele>
        <time>2010-12-10T17:13:37Z</time>
      </trkpt>
      <trkpt lat="49.20664" lon="-0.38189">
        <ele>110</ele>
        <time>2010-12-10T17:13:39Z</time>
      </trkpt>
      <trkpt lat="49.20661" lon="-0.38195">
        <ele>110</ele>
        <time>2010-12-10T17:13:41Z</time>
      </trkpt>
      <trkpt lat="49.20658" lon="-0.38201">
        <ele>110</ele>
        <time>2010-12-10T17:13:43Z</time>
      </trkpt>
      <trkpt lat="49.20655" lon="-0.38207">
        <ele>110</ele>
        <time>2010-12-10T17:13:45Z</time>
      </trkpt>
      <trkpt lat="49.20652" lon="-0.38212">
        <ele>110</ele>
        <time>2010-12-10T17:13:47Z</time>
      </trkpt>
      <trkpt lat="49.20649" lon="-0.38218">
        <ele>110</ele>
        <time>2010-12-10T17:13:49Z</time>
      </trkpt>
      <trkpt lat="49.20645" lon="-0.38223">
        <ele>111</ele>
        <time>2010-12-10T17:13:51Z</time>
      </trkpt>
      <trkpt lat="49.20642" lon="-0.38228">
        <ele>111</ele>
        <time>2010-12-10T17:13:53Z</time>
      </trkpt>
      <trkpt lat="49.20636" lon="-0.38235">
        <ele>111</ele>
        <time>2010-12-10T17:13:56Z</time>
      </trkpt>
      <trkpt lat="49.20632" lon="-0.38239">
        <ele>111</ele>
        <time>2010-12-10T17:13:58Z</time>
      </trkpt>
      <trkpt lat="49.20628" lon="-0.38243">
        <ele>111</ele>
        <time>2010-12-10T17:14:00Z</time>
      </trkpt>
      <trkpt lat="49.20623" lon="-0.38247">
        <ele>111</ele>
        <time>2010-12-10T17:14:02Z</time>
      </trkpt>
      <trkpt lat="49.20619" lon="-0.3825">
        <ele>111</ele>
        <time>2010-12-10T17:14:04Z</time>
      </trkpt>
      <trkpt lat="49.20615" lon="-0.38255">
        <ele>111</ele>
        <time>2010-12-10T17:14:06Z</time>
      </trkpt>
      <trkpt lat="49.20611" lon="-0.38258">
        <ele>111</ele>
        <time>2010-12-10T17:14:08Z</time>
      </trkpt>
      <trkpt lat="49.20606" lon="-0.38263">
        <ele>111</ele>
        <time>2010-12-10T17:14:10Z</time>
      </trkpt>
      <trkpt lat="49.20602" lon="-0.38267">
        <ele>111</ele>
        <time>2010-12-10T17:14:12Z</time>
      </trkpt>
      <trkpt lat="49.20598" lon="-0.38271">
        <ele>111</ele>
        <time>2010-12-10T17:14:14Z</time>
      </trkpt>
      <trkpt lat="49.20594" lon="-0.38275">
        <ele>111</ele>
        <time>2010-12-10T17:14:16Z</time>
      </trkpt>
      <trkpt lat="49.2059" lon="-0.38279">
        <ele>112</ele>
        <time>2010-12-10T17:14:18Z</time>
      </trkpt>
      <trkpt lat="49.20585" lon="-0.38283">
        <ele>111</ele>
        <time>2010-12-10T17:14:20Z</time>
      </trkpt>
      <trkpt lat="49.20579" lon="-0.38288">
        <ele>111</ele>
        <time>2010-12-10T17:14:23Z</time>
      </trkpt>
      <trkpt lat="49.20575" lon="-0.38292">
        <ele>111</ele>
        <time>2010-12-10T17:14:25Z</time>
      </trkpt>
      <trkpt lat="49.20571" lon="-0.38298">
        <ele>111</ele>
        <time>2010-12-10T17:14:27Z</time>
      </trkpt>
      <trkpt lat="49.20568" lon="-0.38303">
        <ele>111</ele>
        <time>2010-12-10T17:14:29Z</time>
      </trkpt>
      <trkpt lat="49.20565" lon="-0.38309">
        <ele>111</ele>
        <time>2010-12-10T17:14:31Z</time>
      </trkpt>
      <trkpt lat="49.20562" lon="-0.38315">
        <ele>111</ele>
        <time>2010-12-10T17:14:33Z</time>
      </trkpt>
      <trkpt lat="49.20559" lon="-0.38321">
        <ele>111</ele>
        <time>2010-12-10T17:14:35Z</time>
      </trkpt>
      <trkpt lat="49.20556" lon="-0.38326">
        <ele>111</ele>
        <time>2010-12-10T17:14:37Z</time>
      </trkpt>
      <trkpt lat="49.20553" lon="-0.38332">
        <ele>111</ele>
        <time>2010-12-10T17:14:39Z</time>
      </trkpt>
      <trkpt lat="49.20549" lon="-0.38338">
        <ele>111</ele>
        <time>2010-12-10T17:14:41Z</time>
      </trkpt>
      <trkpt lat="49.20546" lon="-0.38344">
        <ele>111</ele>
        <time>2010-12-10T17:14:43Z</time>
      </trkpt>
      <trkpt lat="49.20543" lon="-0.3835">
        <ele>111</ele>
        <time>2010-12-10T17:14:45Z</time>
      </trkpt>
      <trkpt lat="49.2054" lon="-0.38356">
        <ele>111</ele>
        <time>2010-12-10T17:14:47Z</time>
      </trkpt>
      <trkpt lat="49.20537" lon="-0.38361">
        <ele>111</ele>
        <time>2010-12-10T17:14:49Z</time>
      </trkpt>
      <trkpt lat="49.20533" lon="-0.38367">
        <ele>111</ele>
        <time>2010-12-10T17:14:51Z</time>
      </trkpt>
      <trkpt lat="49.2053" lon="-0.38372">
        <ele>111</ele>
        <time>2010-12-10T17:14:53Z</time>
      </trkpt>
      <trkpt lat="49.20527" lon="-0.38378">
        <ele>110</ele>
        <time>2010-12-10T17:14:55Z</time>
      </trkpt>
      <trkpt lat="49.20523" lon="-0.38383">
        <ele>110</ele>
        <time>2010-12-10T17:14:57Z</time>
      </trkpt>
      <trkpt lat="49.2052" lon="-0.38389">
        <ele>110</ele>
        <time>2010-12-10T17:14:59Z</time>
      </trkpt>
      <trkpt lat="49.20517" lon="-0.38395">
        <ele>110</ele>
        <time>2010-12-10T17:15:01Z</time>
      </trkpt>
      <trkpt lat="49.20514" lon="-0.38402">
        <ele>111</ele>
        <time>2010-12-10T17:15:03Z</time>
      </trkpt>
      <trkpt lat="49.20511" lon="-0.38408">
        <ele>111</ele>
        <time>2010-12-10T17:15:05Z</time>
      </trkpt>
      <trkpt lat="49.20508" lon="-0.38414">
        <ele>112</ele>
        <time>2010-12-10T17:15:07Z</time>
      </trkpt>
      <trkpt lat="49.20504" lon="-0.38421">
        <ele>113</ele>
        <time>2010-12-10T17:15:10Z</time>
      </trkpt>
      <trkpt lat="49.20501" lon="-0.38427">
        <ele>113</ele>
        <time>2010-12-10T17:15:12Z</time>
      </trkpt>
      <trkpt lat="49.20497" lon="-0.38436">
        <ele>114</ele>
        <time>2010-12-10T17:15:15Z</time>
      </trkpt>
      <trkpt lat="49.20494" lon="-0.38442">
        <ele>114</ele>
        <time>2010-12-10T17:15:17Z</time>
      </trkpt>
      <trkpt lat="49.20491" lon="-0.38448">
        <ele>114</ele>
        <time>2010-12-10T17:15:19Z</time>
      </trkpt>
      <trkpt lat="49.20488" lon="-0.38454">
        <ele>114</ele>
        <time>2010-12-10T17:15:21Z</time>
      </trkpt>
      <trkpt lat="49.20486" lon="-0.3846">
        <ele>114</ele>
        <time>2010-12-10T17:15:23Z</time>
      </trkpt>
      <trkpt lat="49.20482" lon="-0.38466">
        <ele>114</ele>
        <time>2010-12-10T17:15:25Z</time>
      </trkpt>
      <trkpt lat="49.2048" lon="-0.38472">
        <ele>114</ele>
        <time>2010-12-10T17:15:27Z</time>
      </trkpt>
      <trkpt lat="49.20478" lon="-0.38478">
        <ele>114</ele>
        <time>2010-12-10T17:15:29Z</time>
      </trkpt>
      <trkpt lat="49.20475" lon="-0.38485">
        <ele>114</ele>
        <time>2010-12-10T17:15:31Z</time>
      </trkpt>
      <trkpt lat="49.20472" lon="-0.38491">
        <ele>115</ele>
        <time>2010-12-10T17:15:33Z</time>
      </trkpt>
      <trkpt lat="49.20468" lon="-0.385">
        <ele>115</ele>
        <time>2010-12-10T17:15:36Z</time>
      </trkpt>
      <trkpt lat="49.20465" lon="-0.38505">
        <ele>116</ele>
        <time>2010-12-10T17:15:38Z</time>
      </trkpt>
      <trkpt lat="49.20463" lon="-0.38511">
        <ele>116</ele>
        <time>2010-12-10T17:15:40Z</time>
      </trkpt>
      <trkpt lat="49.2046" lon="-0.38519">
        <ele>116</ele>
        <time>2010-12-10T17:15:42Z</time>
      </trkpt>
      <trkpt lat="49.20457" lon="-0.38526">
        <ele>116</ele>
        <time>2010-12-10T17:15:44Z</time>
      </trkpt>
      <trkpt lat="49.20455" lon="-0.38532">
        <ele>116</ele>
        <time>2010-12-10T17:15:46Z</time>
      </trkpt>
      <trkpt lat="49.20453" lon="-0.38539">
        <ele>116</ele>
        <time>2010-12-10T17:15:48Z</time>
      </trkpt>
      <trkpt lat="49.20451" lon="-0.38546">
        <ele>116</ele>
        <time>2010-12-10T17:15:50Z</time>
      </trkpt>
      <trkpt lat="49.20449" lon="-0.38552">
        <ele>116</ele>
        <time>2010-12-10T17:15:52Z</time>
      </trkpt>
      <trkpt lat="49.20446" lon="-0.38559">
        <ele>116</ele>
        <time>2010-12-10T17:15:54Z</time>
      </trkpt>
      <trkpt lat="49.20444" lon="-0.38566">
        <ele>115</ele>
        <time>2010-12-10T17:15:56Z</time>
      </trkpt>
      <trkpt lat="49.20442" lon="-0.38572">
        <ele>115</ele>
        <time>2010-12-10T17:15:58Z</time>
      </trkpt>
      <trkpt lat="49.2044" lon="-0.38579">
        <ele>115</ele>
        <time>2010-12-10T17:16:00Z</time>
      </trkpt>
      <trkpt lat="49.20437" lon="-0.38586">
        <ele>115</ele>
        <time>2010-12-10T17:16:02Z</time>
      </trkpt>
      <trkpt lat="49.20434" lon="-0.38595">
        <ele>115</ele>
        <time>2010-12-10T17:16:05Z</time>
      </trkpt>
      <trkpt lat="49.20431" lon="-0.38602">
        <ele>115</ele>
        <time>2010-12-10T17:16:07Z</time>
      </trkpt>
      <trkpt lat="49.2043" lon="-0.38609">
        <ele>115</ele>
        <time>2010-12-10T17:16:09Z</time>
      </trkpt>
      <trkpt lat="49.20428" lon="-0.38616">
        <ele>115</ele>
        <time>2010-12-10T17:16:11Z</time>
      </trkpt>
      <trkpt lat="49.20426" lon="-0.38624">
        <ele>116</ele>
        <time>2010-12-10T17:16:13Z</time>
      </trkpt>
      <trkpt lat="49.20424" lon="-0.38631">
        <ele>116</ele>
        <time>2010-12-10T17:16:15Z</time>
      </trkpt>
      <trkpt lat="49.20422" lon="-0.38637">
        <ele>116</ele>
        <time>2010-12-10T17:16:17Z</time>
      </trkpt>
      <trkpt lat="49.20421" lon="-0.38644">
        <ele>116</ele>
        <time>2010-12-10T17:16:19Z</time>
      </trkpt>
      <trkpt lat="49.20419" lon="-0.38652">
        <ele>116</ele>
        <time>2010-12-10T17:16:21Z</time>
      </trkpt>
      <trkpt lat="49.20416" lon="-0.38659">
        <ele>116</ele>
        <time>2010-12-10T17:16:23Z</time>
      </trkpt>
      <trkpt lat="49.20414" lon="-0.38667">
        <ele>116</ele>
        <time>2010-12-10T17:16:25Z</time>
      </trkpt>
      <trkpt lat="49.20413" lon="-0.38674">
        <ele>115</ele>
        <time>2010-12-10T17:16:27Z</time>
      </trkpt>
      <trkpt lat="49.20411" lon="-0.38681">
        <ele>115</ele>
        <time>2010-12-10T17:16:29Z</time>
      </trkpt>
      <trkpt lat="49.20408" lon="-0.38688">
        <ele>115</ele>
        <time>2010-12-10T17:16:31Z</time>
      </trkpt>
      <trkpt lat="49.20406" lon="-0.38694">
        <ele>115</ele>
        <time>2010-12-10T17:16:33Z</time>
      </trkpt>
      <trkpt lat="49.20405" lon="-0.38701">
        <ele>115</ele>
        <time>2010-12-10T17:16:35Z</time>
      </trkpt>
      <trkpt lat="49.20402" lon="-0.3871">
        <ele>115</ele>
        <time>2010-12-10T17:16:38Z</time>
      </trkpt>
      <trkpt lat="49.204" lon="-0.38717">
        <ele>115</ele>
        <time>2010-12-10T17:16:40Z</time>
      </trkpt>
      <trkpt lat="49.20399" lon="-0.38724">
        <ele>115</ele>
        <time>2010-12-10T17:16:42Z</time>
      </trkpt>
      <trkpt lat="49.20398" lon="-0.38731">
        <ele>116</ele>
        <time>2010-12-10T17:16:44Z</time>
      </trkpt>
      <trkpt lat="49.20395" lon="-0.38737">
        <ele>116</ele>
        <time>2010-12-10T17:16:46Z</time>
      </trkpt>
      <trkpt lat="49.20394" lon="-0.38744">
        <ele>115</ele>
        <time>2010-12-10T17:16:48Z</time>
      </trkpt>
      <trkpt lat="49.20393" lon="-0.38751">
        <ele>115</ele>
        <time>2010-12-10T17:16:50Z</time>
      </trkpt>
      <trkpt lat="49.20392" lon="-0.38758">
        <ele>115</ele>
        <time>2010-12-10T17:16:52Z</time>
      </trkpt>
      <trkpt lat="49.2039" lon="-0.38765">
        <ele>115</ele>
        <time>2010-12-10T17:16:54Z</time>
      </trkpt>
      <trkpt lat="49.20388" lon="-0.38772">
        <ele>115</ele>
        <time>2010-12-10T17:16:56Z</time>
      </trkpt>
      <trkpt lat="49.20387" lon="-0.38779">
        <ele>116</ele>
        <time>2010-12-10T17:16:58Z</time>
      </trkpt>
      <trkpt lat="49.20385" lon="-0.38786">
        <ele>116</ele>
        <time>2010-12-10T17:17:00Z</time>
      </trkpt>
      <trkpt lat="49.20384" lon="-0.38794">
        <ele>116</ele>
        <time>2010-12-10T17:17:02Z</time>
      </trkpt>
      <trkpt lat="49.20382" lon="-0.38804">
        <ele>116</ele>
        <time>2010-12-10T17:17:05Z</time>
      </trkpt>
      <trkpt lat="49.2038" lon="-0.38812">
        <ele>116</ele>
        <time>2010-12-10T17:17:07Z</time>
      </trkpt>
      <trkpt lat="49.20379" lon="-0.38819">
        <ele>115</ele>
        <time>2010-12-10T17:17:09Z</time>
      </trkpt>
      <trkpt lat="49.20378" lon="-0.38827">
        <ele>115</ele>
        <time>2010-12-10T17:17:11Z</time>
      </trkpt>
      <trkpt lat="49.20377" lon="-0.38834">
        <ele>115</ele>
        <time>2010-12-10T17:17:13Z</time>
      </trkpt>
      <trkpt lat="49.20375" lon="-0.38841">
        <ele>115</ele>
        <time>2010-12-10T17:17:15Z</time>
      </trkpt>
      <trkpt lat="49.20373" lon="-0.38851">
        <ele>115</ele>
        <time>2010-12-10T17:17:18Z</time>
      </trkpt>
      <trkpt lat="49.20371" lon="-0.38858">
        <ele>116</ele>
        <time>2010-12-10T17:17:20Z</time>
      </trkpt>
      <trkpt lat="49.20369" lon="-0.38865">
        <ele>116</ele>
        <time>2010-12-10T17:17:22Z</time>
      </trkpt>
      <trkpt lat="49.20367" lon="-0.38873">
        <ele>116</ele>
        <time>2010-12-10T17:17:24Z</time>
      </trkpt>
      <trkpt lat="49.20365" lon="-0.38883">
        <ele>116</ele>
        <time>2010-12-10T17:17:27Z</time>
      </trkpt>
      <trkpt lat="49.20363" lon="-0.3889">
        <ele>116</ele>
        <time>2010-12-10T17:17:29Z</time>
      </trkpt>
      <trkpt lat="49.20362" lon="-0.38898">
        <ele>116</ele>
        <time>2010-12-10T17:17:31Z</time>
      </trkpt>
      <trkpt lat="49.2036" lon="-0.38906">
        <ele>116</ele>
        <time>2010-12-10T17:17:33Z</time>
      </trkpt>
      <trkpt lat="49.20358" lon="-0.38913">
        <ele>117</ele>
        <time>2010-12-10T17:17:35Z</time>
      </trkpt>
      <trkpt lat="49.20357" lon="-0.3892">
        <ele>116</ele>
        <time>2010-12-10T17:17:37Z</time>
      </trkpt>
      <trkpt lat="49.20355" lon="-0.38929">
        <ele>116</ele>
        <time>2010-12-10T17:17:39Z</time>
      </trkpt>
      <trkpt lat="49.20354" lon="-0.38936">
        <ele>116</ele>
        <time>2010-12-10T17:17:41Z</time>
      </trkpt>
      <trkpt lat="49.20352" lon="-0.38943">
        <ele>116</ele>
        <time>2010-12-10T17:17:43Z</time>
      </trkpt>
      <trkpt lat="49.20351" lon="-0.38951">
        <ele>116</ele>
        <time>2010-12-10T17:17:45Z</time>
      </trkpt>
      <trkpt lat="49.20349" lon="-0.38958">
        <ele>116</ele>
        <time>2010-12-10T17:17:46Z</time>
      </trkpt>
      <trkpt lat="49.20348" lon="-0.38965">
        <ele>116</ele>
        <time>2010-12-10T17:17:49Z</time>
      </trkpt>
      <trkpt lat="49.20347" lon="-0.38972">
        <ele>116</ele>
        <time>2010-12-10T17:17:51Z</time>
      </trkpt>
      <trkpt lat="49.20345" lon="-0.38981">
        <ele>116</ele>
        <time>2010-12-10T17:17:53Z</time>
      </trkpt>
      <trkpt lat="49.20343" lon="-0.38988">
        <ele>116</ele>
        <time>2010-12-10T17:17:54Z</time>
      </trkpt>
      <trkpt lat="49.20342" lon="-0.38995">
        <ele>116</ele>
        <time>2010-12-10T17:17:56Z</time>
      </trkpt>
      <trkpt lat="49.2034" lon="-0.39003">
        <ele>115</ele>
        <time>2010-12-10T17:17:58Z</time>
      </trkpt>
      <trkpt lat="49.20338" lon="-0.39009">
        <ele>115</ele>
        <time>2010-12-10T17:18:00Z</time>
      </trkpt>
      <trkpt lat="49.20335" lon="-0.39015">
        <ele>115</ele>
        <time>2010-12-10T17:18:02Z</time>
      </trkpt>
      <trkpt lat="49.20334" lon="-0.39023">
        <ele>115</ele>
        <time>2010-12-10T17:18:04Z</time>
      </trkpt>
      <trkpt lat="49.20333" lon="-0.3903">
        <ele>115</ele>
        <time>2010-12-10T17:18:06Z</time>
      </trkpt>
      <trkpt lat="49.20332" lon="-0.39038">
        <ele>115</ele>
        <time>2010-12-10T17:18:08Z</time>
      </trkpt>
      <trkpt lat="49.2033" lon="-0.39046">
        <ele>116</ele>
        <time>2010-12-10T17:18:10Z</time>
      </trkpt>
      <trkpt lat="49.20328" lon="-0.39053">
        <ele>115</ele>
        <time>2010-12-10T17:18:12Z</time>
      </trkpt>
      <trkpt lat="49.20327" lon="-0.39061">
        <ele>115</ele>
        <time>2010-12-10T17:18:14Z</time>
      </trkpt>
      <trkpt lat="49.20325" lon="-0.39068">
        <ele>115</ele>
        <time>2010-12-10T17:18:16Z</time>
      </trkpt>
      <trkpt lat="49.20323" lon="-0.39076">
        <ele>114</ele>
        <time>2010-12-10T17:18:18Z</time>
      </trkpt>
      <trkpt lat="49.20318" lon="-0.3908">
        <ele>114</ele>
        <time>2010-12-10T17:18:21Z</time>
      </trkpt>
      <trkpt lat="49.20313" lon="-0.39079">
        <ele>113</ele>
        <time>2010-12-10T17:18:24Z</time>
      </trkpt>
      <trkpt lat="49.20306" lon="-0.39078">
        <ele>113</ele>
        <time>2010-12-10T17:18:27Z</time>
      </trkpt>
      <trkpt lat="49.20302" lon="-0.3908">
        <ele>113</ele>
        <time>2010-12-10T17:18:29Z</time>
      </trkpt>
      <trkpt lat="49.20297" lon="-0.39085">
        <ele>113</ele>
        <time>2010-12-10T17:18:31Z</time>
      </trkpt>
      <trkpt lat="49.20293" lon="-0.39087">
        <ele>113</ele>
        <time>2010-12-10T17:18:33Z</time>
      </trkpt>
      <trkpt lat="49.20288" lon="-0.39089">
        <ele>113</ele>
        <time>2010-12-10T17:18:35Z</time>
      </trkpt>
      <trkpt lat="49.20283" lon="-0.39089">
        <ele>114</ele>
        <time>2010-12-10T17:18:37Z</time>
      </trkpt>
      <trkpt lat="49.20277" lon="-0.39085">
        <ele>114</ele>
        <time>2010-12-10T17:18:41Z</time>
      </trkpt>
      <trkpt lat="49.20272" lon="-0.3908">
        <ele>114</ele>
        <time>2010-12-10T17:18:43Z</time>
      </trkpt>
      <trkpt lat="49.20268" lon="-0.39075">
        <ele>114</ele>
        <time>2010-12-10T17:18:45Z</time>
      </trkpt>
      <trkpt lat="49.20264" lon="-0.39071">
        <ele>114</ele>
        <time>2010-12-10T17:18:47Z</time>
      </trkpt>
      <trkpt lat="49.20261" lon="-0.39065">
        <ele>114</ele>
        <time>2010-12-10T17:18:49Z</time>
      </trkpt>
      <trkpt lat="49.20258" lon="-0.3906">
        <ele>113</ele>
        <time>2010-12-10T17:18:51Z</time>
      </trkpt>
      <trkpt lat="49.20254" lon="-0.39056">
        <ele>113</ele>
        <time>2010-12-10T17:18:53Z</time>
      </trkpt>
      <trkpt lat="49.20251" lon="-0.39051">
        <ele>113</ele>
        <time>2010-12-10T17:18:55Z</time>
      </trkpt>
      <trkpt lat="49.20248" lon="-0.39046">
        <ele>113</ele>
        <time>2010-12-10T17:18:57Z</time>
      </trkpt>
      <trkpt lat="49.20244" lon="-0.39041">
        <ele>113</ele>
        <time>2010-12-10T17:18:59Z</time>
      </trkpt>
      <trkpt lat="49.20241" lon="-0.39036">
        <ele>113</ele>
        <time>2010-12-10T17:19:01Z</time>
      </trkpt>
      <trkpt lat="49.20237" lon="-0.39028">
        <ele>113</ele>
        <time>2010-12-10T17:19:04Z</time>
      </trkpt>
      <trkpt lat="49.20233" lon="-0.39022">
        <ele>112</ele>
        <time>2010-12-10T17:19:06Z</time>
      </trkpt>
      <trkpt lat="49.2023" lon="-0.39016">
        <ele>112</ele>
        <time>2010-12-10T17:19:08Z</time>
      </trkpt>
      <trkpt lat="49.20226" lon="-0.3901">
        <ele>112</ele>
        <time>2010-12-10T17:19:10Z</time>
      </trkpt>
      <trkpt lat="49.20221" lon="-0.39002">
        <ele>112</ele>
        <time>2010-12-10T17:19:13Z</time>
      </trkpt>
      <trkpt lat="49.20217" lon="-0.38995">
        <ele>112</ele>
        <time>2010-12-10T17:19:16Z</time>
      </trkpt>
      <trkpt lat="49.20213" lon="-0.38988">
        <ele>112</ele>
        <time>2010-12-10T17:19:19Z</time>
      </trkpt>
      <trkpt lat="49.20209" lon="-0.38983">
        <ele>113</ele>
        <time>2010-12-10T17:19:21Z</time>
      </trkpt>
      <trkpt lat="49.20206" lon="-0.38977">
        <ele>113</ele>
        <time>2010-12-10T17:19:23Z</time>
      </trkpt>
      <trkpt lat="49.20203" lon="-0.38971">
        <ele>113</ele>
        <time>2010-12-10T17:19:25Z</time>
      </trkpt>
      <trkpt lat="49.202" lon="-0.38965">
        <ele>113</ele>
        <time>2010-12-10T17:19:27Z</time>
      </trkpt>
      <trkpt lat="49.20197" lon="-0.3896">
        <ele>113</ele>
        <time>2010-12-10T17:19:29Z</time>
      </trkpt>
      <trkpt lat="49.20194" lon="-0.38955">
        <ele>113</ele>
        <time>2010-12-10T17:19:31Z</time>
      </trkpt>
      <trkpt lat="49.20189" lon="-0.38947">
        <ele>114</ele>
        <time>2010-12-10T17:19:34Z</time>
      </trkpt>
      <trkpt lat="49.20185" lon="-0.38942">
        <ele>114</ele>
        <time>2010-12-10T17:19:36Z</time>
      </trkpt>
      <trkpt lat="49.20181" lon="-0.38934">
        <ele>114</ele>
        <time>2010-12-10T17:19:39Z</time>
      </trkpt>
      <trkpt lat="49.20178" lon="-0.38929">
        <ele>114</ele>
        <time>2010-12-10T17:19:41Z</time>
      </trkpt>
      <trkpt lat="49.20174" lon="-0.38923">
        <ele>114</ele>
        <time>2010-12-10T17:19:43Z</time>
      </trkpt>
      <trkpt lat="49.20171" lon="-0.38917">
        <ele>114</ele>
        <time>2010-12-10T17:19:45Z</time>
      </trkpt>
      <trkpt lat="49.20167" lon="-0.38911">
        <ele>114</ele>
        <time>2010-12-10T17:19:47Z</time>
      </trkpt>
      <trkpt lat="49.20163" lon="-0.38905">
        <ele>115</ele>
        <time>2010-12-10T17:19:50Z</time>
      </trkpt>
      <trkpt lat="49.20159" lon="-0.389">
        <ele>115</ele>
        <time>2010-12-10T17:19:52Z</time>
      </trkpt>
      <trkpt lat="49.20156" lon="-0.38894">
        <ele>115</ele>
        <time>2010-12-10T17:19:54Z</time>
      </trkpt>
      <trkpt lat="49.20151" lon="-0.38887">
        <ele>115</ele>
        <time>2010-12-10T17:19:57Z</time>
      </trkpt>
      <trkpt lat="49.20147" lon="-0.3888">
        <ele>115</ele>
        <time>2010-12-10T17:20:00Z</time>
      </trkpt>
      <trkpt lat="49.20143" lon="-0.38874">
        <ele>115</ele>
        <time>2010-12-10T17:20:02Z</time>
      </trkpt>
      <trkpt lat="49.20139" lon="-0.3887">
        <ele>115</ele>
        <time>2010-12-10T17:20:04Z</time>
      </trkpt>
      <trkpt lat="49.20135" lon="-0.38865">
        <ele>115</ele>
        <time>2010-12-10T17:20:06Z</time>
      </trkpt>
      <trkpt lat="49.20129" lon="-0.38864">
        <ele>115</ele>
        <time>2010-12-10T17:20:08Z</time>
      </trkpt>
      <trkpt lat="49.20122" lon="-0.38865">
        <ele>116</ele>
        <time>2010-12-10T17:20:11Z</time>
      </trkpt>
      <trkpt lat="49.20118" lon="-0.38863">
        <ele>115</ele>
        <time>2010-12-10T17:20:13Z</time>
      </trkpt>
      <trkpt lat="49.20113" lon="-0.38859">
        <ele>115</ele>
        <time>2010-12-10T17:20:15Z</time>
      </trkpt>
      <trkpt lat="49.20107" lon="-0.38855">
        <ele>115</ele>
        <time>2010-12-10T17:20:17Z</time>
      </trkpt>
      <trkpt lat="49.20103" lon="-0.38853">
        <ele>115</ele>
        <time>2010-12-10T17:20:19Z</time>
      </trkpt>
      <trkpt lat="49.20098" lon="-0.38854">
        <ele>116</ele>
        <time>2010-12-10T17:20:21Z</time>
      </trkpt>
      <trkpt lat="49.20091" lon="-0.38855">
        <ele>116</ele>
        <time>2010-12-10T17:20:24Z</time>
      </trkpt>
      <trkpt lat="49.20087" lon="-0.38852">
        <ele>116</ele>
        <time>2010-12-10T17:20:26Z</time>
      </trkpt>
      <trkpt lat="49.20082" lon="-0.3885">
        <ele>115</ele>
        <time>2010-12-10T17:20:28Z</time>
      </trkpt>
      <trkpt lat="49.20075" lon="-0.38852">
        <ele>115</ele>
        <time>2010-12-10T17:20:31Z</time>
      </trkpt>
      <trkpt lat="49.20069" lon="-0.38857">
        <ele>116</ele>
        <time>2010-12-10T17:20:34Z</time>
      </trkpt>
      <trkpt lat="49.20066" lon="-0.38861">
        <ele>115</ele>
        <time>2010-12-10T17:20:36Z</time>
      </trkpt>
      <trkpt lat="49.20062" lon="-0.38866">
        <ele>116</ele>
        <time>2010-12-10T17:20:38Z</time>
      </trkpt>
      <trkpt lat="49.20058" lon="-0.38869">
        <ele>115</ele>
        <time>2010-12-10T17:20:40Z</time>
      </trkpt>
      <trkpt lat="49.20052" lon="-0.38875">
        <ele>116</ele>
        <time>2010-12-10T17:20:43Z</time>
      </trkpt>
      <trkpt lat="49.20048" lon="-0.3888">
        <ele>116</ele>
        <time>2010-12-10T17:20:45Z</time>
      </trkpt>
      <trkpt lat="49.20041" lon="-0.38885">
        <ele>115</ele>
        <time>2010-12-10T17:20:48Z</time>
      </trkpt>
      <trkpt lat="49.20037" lon="-0.38889">
        <ele>115</ele>
        <time>2010-12-10T17:20:50Z</time>
      </trkpt>
      <trkpt lat="49.20033" lon="-0.38894">
        <ele>115</ele>
        <time>2010-12-10T17:20:52Z</time>
      </trkpt>
      <trkpt lat="49.20029" lon="-0.38898">
        <ele>115</ele>
        <time>2010-12-10T17:20:54Z</time>
      </trkpt>
      <trkpt lat="49.20025" lon="-0.38904">
        <ele>115</ele>
        <time>2010-12-10T17:20:56Z</time>
      </trkpt>
      <trkpt lat="49.20021" lon="-0.38909">
        <ele>115</ele>
        <time>2010-12-10T17:20:58Z</time>
      </trkpt>
      <trkpt lat="49.20017" lon="-0.38912">
        <ele>115</ele>
        <time>2010-12-10T17:21:00Z</time>
      </trkpt>
      <trkpt lat="49.20012" lon="-0.38918">
        <ele>115</ele>
        <time>2010-12-10T17:21:02Z</time>
      </trkpt>
      <trkpt lat="49.20008" lon="-0.38922">
        <ele>115</ele>
        <time>2010-12-10T17:21:04Z</time>
      </trkpt>
      <trkpt lat="49.20003" lon="-0.38927">
        <ele>115</ele>
        <time>2010-12-10T17:21:06Z</time>
      </trkpt>
      <trkpt lat="49.2" lon="-0.38932">
        <ele>115</ele>
        <time>2010-12-10T17:21:08Z</time>
      </trkpt>
      <trkpt lat="49.19995" lon="-0.38937">
        <ele>115</ele>
        <time>2010-12-10T17:21:10Z</time>
      </trkpt>
      <trkpt lat="49.19991" lon="-0.38942">
        <ele>114</ele>
        <time>2010-12-10T17:21:12Z</time>
      </trkpt>
      <trkpt lat="49.19987" lon="-0.38947">
        <ele>114</ele>
        <time>2010-12-10T17:21:14Z</time>
      </trkpt>
      <trkpt lat="49.19983" lon="-0.38952">
        <ele>114</ele>
        <time>2010-12-10T17:21:16Z</time>
      </trkpt>
      <trkpt lat="49.19979" lon="-0.38956">
        <ele>114</ele>
        <time>2010-12-10T17:21:18Z</time>
      </trkpt>
      <trkpt lat="49.19975" lon="-0.38961">
        <ele>114</ele>
        <time>2010-12-10T17:21:20Z</time>
      </trkpt>
      <trkpt lat="49.19971" lon="-0.38965">
        <ele>114</ele>
        <time>2010-12-10T17:21:22Z</time>
      </trkpt>
      <trkpt lat="49.19967" lon="-0.38969">
        <ele>114</ele>
        <time>2010-12-10T17:21:24Z</time>
      </trkpt>
      <trkpt lat="49.19962" lon="-0.38971">
        <ele>113</ele>
        <time>2010-12-10T17:21:27Z</time>
      </trkpt>
      <trkpt lat="49.19955" lon="-0.38972">
        <ele>113</ele>
        <time>2010-12-10T17:21:30Z</time>
      </trkpt>
      <trkpt lat="49.1995" lon="-0.38975">
        <ele>113</ele>
        <time>2010-12-10T17:21:32Z</time>
      </trkpt>
      <trkpt lat="49.19945" lon="-0.38979">
        <ele>113</ele>
        <time>2010-12-10T17:21:34Z</time>
      </trkpt>
      <trkpt lat="49.19941" lon="-0.38984">
        <ele>112</ele>
        <time>2010-12-10T17:21:36Z</time>
      </trkpt>
      <trkpt lat="49.19936" lon="-0.38988">
        <ele>112</ele>
        <time>2010-12-10T17:21:38Z</time>
      </trkpt>
      <trkpt lat="49.19931" lon="-0.38989">
        <ele>112</ele>
        <time>2010-12-10T17:21:40Z</time>
      </trkpt>
      <trkpt lat="49.19927" lon="-0.38984">
        <ele>112</ele>
        <time>2010-12-10T17:21:42Z</time>
      </trkpt>
      <trkpt lat="49.19923" lon="-0.38978">
        <ele>111</ele>
        <time>2010-12-10T17:21:44Z</time>
      </trkpt>
      <trkpt lat="49.19921" lon="-0.38971">
        <ele>111</ele>
        <time>2010-12-10T17:21:46Z</time>
      </trkpt>
      <trkpt lat="49.19918" lon="-0.38964">
        <ele>111</ele>
        <time>2010-12-10T17:21:48Z</time>
      </trkpt>
      <trkpt lat="49.19914" lon="-0.38956">
        <ele>111</ele>
        <time>2010-12-10T17:21:50Z</time>
      </trkpt>
      <trkpt lat="49.19912" lon="-0.38951">
        <ele>110</ele>
        <time>2010-12-10T17:21:52Z</time>
      </trkpt>
      <trkpt lat="49.19909" lon="-0.38944">
        <ele>110</ele>
        <time>2010-12-10T17:21:54Z</time>
      </trkpt>
      <trkpt lat="49.19906" lon="-0.38937">
        <ele>110</ele>
        <time>2010-12-10T17:21:56Z</time>
      </trkpt>
      <trkpt lat="49.19903" lon="-0.3893">
        <ele>110</ele>
        <time>2010-12-10T17:21:58Z</time>
      </trkpt>
      <trkpt lat="49.199" lon="-0.38923">
        <ele>110</ele>
        <time>2010-12-10T17:22:00Z</time>
      </trkpt>
      <trkpt lat="49.19897" lon="-0.38917">
        <ele>110</ele>
        <time>2010-12-10T17:22:02Z</time>
      </trkpt>
      <trkpt lat="49.19893" lon="-0.3891">
        <ele>109</ele>
        <time>2010-12-10T17:22:04Z</time>
      </trkpt>
      <trkpt lat="49.1989" lon="-0.38904">
        <ele>109</ele>
        <time>2010-12-10T17:22:06Z</time>
      </trkpt>
      <trkpt lat="49.19887" lon="-0.38897">
        <ele>109</ele>
        <time>2010-12-10T17:22:08Z</time>
      </trkpt>
      <trkpt lat="49.19884" lon="-0.3889">
        <ele>109</ele>
        <time>2010-12-10T17:22:10Z</time>
      </trkpt>
      <trkpt lat="49.19882" lon="-0.38883">
        <ele>109</ele>
        <time>2010-12-10T17:22:12Z</time>
      </trkpt>
      <trkpt lat="49.19881" lon="-0.38876">
        <ele>109</ele>
        <time>2010-12-10T17:22:14Z</time>
      </trkpt>
      <trkpt lat="49.1988" lon="-0.38868">
        <ele>109</ele>
        <time>2010-12-10T17:22:16Z</time>
      </trkpt>
      <trkpt lat="49.1988" lon="-0.3886">
        <ele>109</ele>
        <time>2010-12-10T17:22:18Z</time>
      </trkpt>
      <trkpt lat="49.19879" lon="-0.38853">
        <ele>108</ele>
        <time>2010-12-10T17:22:20Z</time>
      </trkpt>
      <trkpt lat="49.19877" lon="-0.38845">
        <ele>108</ele>
        <time>2010-12-10T17:22:22Z</time>
      </trkpt>
      <trkpt lat="49.19876" lon="-0.38837">
        <ele>108</ele>
        <time>2010-12-10T17:22:24Z</time>
      </trkpt>
      <trkpt lat="49.19875" lon="-0.38829">
        <ele>108</ele>
        <time>2010-12-10T17:22:26Z</time>
      </trkpt>
      <trkpt lat="49.19874" lon="-0.38822">
        <ele>108</ele>
        <time>2010-12-10T17:22:28Z</time>
      </trkpt>
      <trkpt lat="49.19872" lon="-0.38815">
        <ele>107</ele>
        <time>2010-12-10T17:22:30Z</time>
      </trkpt>
      <trkpt lat="49.19871" lon="-0.38808">
        <ele>107</ele>
        <time>2010-12-10T17:22:32Z</time>
      </trkpt>
      <trkpt lat="49.19869" lon="-0.388">
        <ele>107</ele>
        <time>2010-12-10T17:22:34Z</time>
      </trkpt>
      <trkpt lat="49.19868" lon="-0.38792">
        <ele>107</ele>
        <time>2010-12-10T17:22:36Z</time>
      </trkpt>
      <trkpt lat="49.19867" lon="-0.38784">
        <ele>107</ele>
        <time>2010-12-10T17:22:38Z</time>
      </trkpt>
      <trkpt lat="49.19865" lon="-0.38777">
        <ele>107</ele>
        <time>2010-12-10T17:22:40Z</time>
      </trkpt>
      <trkpt lat="49.19863" lon="-0.38769">
        <ele>107</ele>
        <time>2010-12-10T17:22:42Z</time>
      </trkpt>
      <trkpt lat="49.19861" lon="-0.38762">
        <ele>107</ele>
        <time>2010-12-10T17:22:44Z</time>
      </trkpt>
      <trkpt lat="49.1986" lon="-0.38755">
        <ele>107</ele>
        <time>2010-12-10T17:22:46Z</time>
      </trkpt>
      <trkpt lat="49.19858" lon="-0.38747">
        <ele>107</ele>
        <time>2010-12-10T17:22:48Z</time>
      </trkpt>
      <trkpt lat="49.19857" lon="-0.3874">
        <ele>108</ele>
        <time>2010-12-10T17:22:50Z</time>
      </trkpt>
      <trkpt lat="49.19855" lon="-0.38732">
        <ele>108</ele>
        <time>2010-12-10T17:22:52Z</time>
      </trkpt>
      <trkpt lat="49.19854" lon="-0.38725">
        <ele>108</ele>
        <time>2010-12-10T17:22:54Z</time>
      </trkpt>
      <trkpt lat="49.19852" lon="-0.38717">
        <ele>108</ele>
        <time>2010-12-10T17:22:56Z</time>
      </trkpt>
      <trkpt lat="49.1985" lon="-0.38709">
        <ele>107</ele>
        <time>2010-12-10T17:22:58Z</time>
      </trkpt>
      <trkpt lat="49.19849" lon="-0.38702">
        <ele>107</ele>
        <time>2010-12-10T17:23:00Z</time>
      </trkpt>
      <trkpt lat="49.19847" lon="-0.38694">
        <ele>107</ele>
        <time>2010-12-10T17:23:02Z</time>
      </trkpt>
      <trkpt lat="49.19846" lon="-0.38686">
        <ele>107</ele>
        <time>2010-12-10T17:23:04Z</time>
      </trkpt>
      <trkpt lat="49.19844" lon="-0.38679">
        <ele>107</ele>
        <time>2010-12-10T17:23:06Z</time>
      </trkpt>
      <trkpt lat="49.19843" lon="-0.3867">
        <ele>108</ele>
        <time>2010-12-10T17:23:08Z</time>
      </trkpt>
      <trkpt lat="49.19841" lon="-0.38662">
        <ele>107</ele>
        <time>2010-12-10T17:23:10Z</time>
      </trkpt>
      <trkpt lat="49.1984" lon="-0.38654">
        <ele>107</ele>
        <time>2010-12-10T17:23:12Z</time>
      </trkpt>
      <trkpt lat="49.19838" lon="-0.38646">
        <ele>107</ele>
        <time>2010-12-10T17:23:14Z</time>
      </trkpt>
      <trkpt lat="49.19837" lon="-0.38638">
        <ele>107</ele>
        <time>2010-12-10T17:23:16Z</time>
      </trkpt>
      <trkpt lat="49.19835" lon="-0.3863">
        <ele>107</ele>
        <time>2010-12-10T17:23:18Z</time>
      </trkpt>
      <trkpt lat="49.19834" lon="-0.38623">
        <ele>107</ele>
        <time>2010-12-10T17:23:20Z</time>
      </trkpt>
      <trkpt lat="49.19832" lon="-0.38615">
        <ele>107</ele>
        <time>2010-12-10T17:23:22Z</time>
      </trkpt>
      <trkpt lat="49.19831" lon="-0.38606">
        <ele>108</ele>
        <time>2010-12-10T17:23:24Z</time>
      </trkpt>
      <trkpt lat="49.1983" lon="-0.38598">
        <ele>108</ele>
        <time>2010-12-10T17:23:26Z</time>
      </trkpt>
      <trkpt lat="49.19828" lon="-0.38589">
        <ele>108</ele>
        <time>2010-12-10T17:23:28Z</time>
      </trkpt>
      <trkpt lat="49.19826" lon="-0.38581">
        <ele>108</ele>
        <time>2010-12-10T17:23:30Z</time>
      </trkpt>
      <trkpt lat="49.19824" lon="-0.38572">
        <ele>108</ele>
        <time>2010-12-10T17:23:32Z</time>
      </trkpt>
      <trkpt lat="49.19823" lon="-0.38564">
        <ele>108</ele>
        <time>2010-12-10T17:23:34Z</time>
      </trkpt>
      <trkpt lat="49.19821" lon="-0.38556">
        <ele>108</ele>
        <time>2010-12-10T17:23:36Z</time>
      </trkpt>
      <trkpt lat="49.19819" lon="-0.38548">
        <ele>108</ele>
        <time>2010-12-10T17:23:38Z</time>
      </trkpt>
      <trkpt lat="49.19817" lon="-0.3854">
        <ele>108</ele>
        <time>2010-12-10T17:23:40Z</time>
      </trkpt>
      <trkpt lat="49.19816" lon="-0.38531">
        <ele>108</ele>
        <time>2010-12-10T17:23:42Z</time>
      </trkpt>
      <trkpt lat="49.19814" lon="-0.38522">
        <ele>107</ele>
        <time>2010-12-10T17:23:44Z</time>
      </trkpt>
      <trkpt lat="49.19812" lon="-0.38514">
        <ele>107</ele>
        <time>2010-12-10T17:23:46Z</time>
      </trkpt>
      <trkpt lat="49.19811" lon="-0.38505">
        <ele>107</ele>
        <time>2010-12-10T17:23:48Z</time>
      </trkpt>
      <trkpt lat="49.19809" lon="-0.38496">
        <ele>107</ele>
        <time>2010-12-10T17:23:50Z</time>
      </trkpt>
      <trkpt lat="49.19807" lon="-0.38488">
        <ele>107</ele>
        <time>2010-12-10T17:23:52Z</time>
      </trkpt>
      <trkpt lat="49.19805" lon="-0.38479">
        <ele>107</ele>
        <time>2010-12-10T17:23:54Z</time>
      </trkpt>
      <trkpt lat="49.19804" lon="-0.3847">
        <ele>106</ele>
        <time>2010-12-10T17:23:56Z</time>
      </trkpt>
      <trkpt lat="49.19802" lon="-0.38461">
        <ele>106</ele>
        <time>2010-12-10T17:23:58Z</time>
      </trkpt>
      <trkpt lat="49.198" lon="-0.38453">
        <ele>106</ele>
        <time>2010-12-10T17:24:00Z</time>
      </trkpt>
      <trkpt lat="49.19798" lon="-0.38444">
        <ele>105</ele>
        <time>2010-12-10T17:24:02Z</time>
      </trkpt>
      <trkpt lat="49.19797" lon="-0.38434">
        <ele>105</ele>
        <time>2010-12-10T17:24:04Z</time>
      </trkpt>
      <trkpt lat="49.19795" lon="-0.38426">
        <ele>105</ele>
        <time>2010-12-10T17:24:06Z</time>
      </trkpt>
      <trkpt lat="49.19794" lon="-0.38417">
        <ele>105</ele>
        <time>2010-12-10T17:24:08Z</time>
      </trkpt>
      <trkpt lat="49.19793" lon="-0.38409">
        <ele>104</ele>
        <time>2010-12-10T17:24:10Z</time>
      </trkpt>
      <trkpt lat="49.19791" lon="-0.384">
        <ele>104</ele>
        <time>2010-12-10T17:24:13Z</time>
      </trkpt>
      <trkpt lat="49.1979" lon="-0.38392">
        <ele>104</ele>
        <time>2010-12-10T17:24:16Z</time>
      </trkpt>
      <trkpt lat="49.1979" lon="-0.38385">
        <ele>103</ele>
        <time>2010-12-10T17:24:18Z</time>
      </trkpt>
      <trkpt lat="49.19793" lon="-0.38379">
        <ele>103</ele>
        <time>2010-12-10T17:24:20Z</time>
      </trkpt>
      <trkpt lat="49.19798" lon="-0.38374">
        <ele>104</ele>
        <time>2010-12-10T17:24:23Z</time>
      </trkpt>
      <trkpt lat="49.19804" lon="-0.38372">
        <ele>104</ele>
        <time>2010-12-10T17:24:26Z</time>
      </trkpt>
      <trkpt lat="49.1981" lon="-0.38374">
        <ele>104</ele>
        <time>2010-12-10T17:24:29Z</time>
      </trkpt>
      <trkpt lat="49.19815" lon="-0.38379">
        <ele>105</ele>
        <time>2010-12-10T17:24:32Z</time>
      </trkpt>
      <trkpt lat="49.19819" lon="-0.38387">
        <ele>105</ele>
        <time>2010-12-10T17:24:35Z</time>
      </trkpt>
      <trkpt lat="49.19822" lon="-0.38392">
        <ele>105</ele>
        <time>2010-12-10T17:24:37Z</time>
      </trkpt>
      <trkpt lat="49.19828" lon="-0.38396">
        <ele>105</ele>
        <time>2010-12-10T17:24:40Z</time>
      </trkpt>
      <trkpt lat="49.19832" lon="-0.38399">
        <ele>105</ele>
        <time>2010-12-10T17:24:42Z</time>
      </trkpt>
      <trkpt lat="49.19837" lon="-0.38402">
        <ele>105</ele>
        <time>2010-12-10T17:24:44Z</time>
      </trkpt>
      <trkpt lat="49.19841" lon="-0.38404">
        <ele>105</ele>
        <time>2010-12-10T17:24:46Z</time>
      </trkpt>
      <trkpt lat="49.19847" lon="-0.38407">
        <ele>105</ele>
        <time>2010-12-10T17:24:49Z</time>
      </trkpt>
      <trkpt lat="49.19852" lon="-0.38412">
        <ele>105</ele>
        <time>2010-12-10T17:24:52Z</time>
      </trkpt>
      <trkpt lat="49.19857" lon="-0.38419">
        <ele>105</ele>
        <time>2010-12-10T17:24:55Z</time>
      </trkpt>
      <trkpt lat="49.19861" lon="-0.38425">
        <ele>105</ele>
        <time>2010-12-10T17:24:57Z</time>
      </trkpt>
      <trkpt lat="49.19865" lon="-0.38433">
        <ele>105</ele>
        <time>2010-12-10T17:25:00Z</time>
      </trkpt>
      <trkpt lat="49.19869" lon="-0.38442">
        <ele>105</ele>
        <time>2010-12-10T17:25:03Z</time>
      </trkpt>
      <trkpt lat="49.19874" lon="-0.38449">
        <ele>105</ele>
        <time>2010-12-10T17:25:06Z</time>
      </trkpt>
      <trkpt lat="49.19877" lon="-0.38455">
        <ele>106</ele>
        <time>2010-12-10T17:25:08Z</time>
      </trkpt>
      <trkpt lat="49.19881" lon="-0.38463">
        <ele>106</ele>
        <time>2010-12-10T17:25:11Z</time>
      </trkpt>
      <trkpt lat="49.19884" lon="-0.38471">
        <ele>106</ele>
        <time>2010-12-10T17:25:14Z</time>
      </trkpt>
      <trkpt lat="49.19887" lon="-0.38476">
        <ele>106</ele>
        <time>2010-12-10T17:25:16Z</time>
      </trkpt>
      <trkpt lat="49.19891" lon="-0.38484">
        <ele>106</ele>
        <time>2010-12-10T17:25:19Z</time>
      </trkpt>
      <trkpt lat="49.19894" lon="-0.3849">
        <ele>106</ele>
        <time>2010-12-10T17:25:21Z</time>
      </trkpt>
      <trkpt lat="49.19898" lon="-0.38499">
        <ele>106</ele>
        <time>2010-12-10T17:25:24Z</time>
      </trkpt>
      <trkpt lat="49.199" lon="-0.38505">
        <ele>107</ele>
        <time>2010-12-10T17:25:26Z</time>
      </trkpt>
      <trkpt lat="49.19905" lon="-0.38513">
        <ele>107</ele>
        <time>2010-12-10T17:25:29Z</time>
      </trkpt>
      <trkpt lat="49.19908" lon="-0.38521">
        <ele>107</ele>
        <time>2010-12-10T17:25:32Z</time>
      </trkpt>
      <trkpt lat="49.19912" lon="-0.38527">
        <ele>108</ele>
        <time>2010-12-10T17:25:34Z</time>
      </trkpt>
      <trkpt lat="49.19916" lon="-0.38535">
        <ele>108</ele>
        <time>2010-12-10T17:25:37Z</time>
      </trkpt>
      <trkpt lat="49.19919" lon="-0.38541">
        <ele>109</ele>
        <time>2010-12-10T17:25:39Z</time>
      </trkpt>
      <trkpt lat="49.19922" lon="-0.38546">
        <ele>109</ele>
        <time>2010-12-10T17:25:41Z</time>
      </trkpt>
      <trkpt lat="49.19924" lon="-0.38552">
        <ele>109</ele>
        <time>2010-12-10T17:25:43Z</time>
      </trkpt>
      <trkpt lat="49.19928" lon="-0.38558">
        <ele>109</ele>
        <time>2010-12-10T17:25:45Z</time>
      </trkpt>
      <trkpt lat="49.1993" lon="-0.38564">
        <ele>109</ele>
        <time>2010-12-10T17:25:47Z</time>
      </trkpt>
      <trkpt lat="49.19933" lon="-0.3857">
        <ele>109</ele>
        <time>2010-12-10T17:25:49Z</time>
      </trkpt>
      <trkpt lat="49.19936" lon="-0.38575">
        <ele>109</ele>
        <time>2010-12-10T17:25:51Z</time>
      </trkpt>
      <trkpt lat="49.19941" lon="-0.38583">
        <ele>110</ele>
        <time>2010-12-10T17:25:54Z</time>
      </trkpt>
      <trkpt lat="49.19945" lon="-0.38591">
        <ele>111</ele>
        <time>2010-12-10T17:25:57Z</time>
      </trkpt>
      <trkpt lat="49.19949" lon="-0.38599">
        <ele>111</ele>
        <time>2010-12-10T17:26:00Z</time>
      </trkpt>
      <trkpt lat="49.19952" lon="-0.38604">
        <ele>112</ele>
        <time>2010-12-10T17:26:02Z</time>
      </trkpt>
      <trkpt lat="49.19956" lon="-0.3861">
        <ele>112</ele>
        <time>2010-12-10T17:26:04Z</time>
      </trkpt>
      <trkpt lat="49.19959" lon="-0.38615">
        <ele>112</ele>
        <time>2010-12-10T17:26:06Z</time>
      </trkpt>
      <trkpt lat="49.19963" lon="-0.38621">
        <ele>112</ele>
        <time>2010-12-10T17:26:08Z</time>
      </trkpt>
      <trkpt lat="49.19966" lon="-0.38626">
        <ele>112</ele>
        <time>2010-12-10T17:26:10Z</time>
      </trkpt>
      <trkpt lat="49.19969" lon="-0.38632">
        <ele>112</ele>
        <time>2010-12-10T17:26:12Z</time>
      </trkpt>
      <trkpt lat="49.19972" lon="-0.38638">
        <ele>112</ele>
        <time>2010-12-10T17:26:14Z</time>
      </trkpt>
      <trkpt lat="49.19976" lon="-0.38644">
        <ele>112</ele>
        <time>2010-12-10T17:26:16Z</time>
      </trkpt>
      <trkpt lat="49.19979" lon="-0.3865">
        <ele>111</ele>
        <time>2010-12-10T17:26:18Z</time>
      </trkpt>
      <trkpt lat="49.19982" lon="-0.38655">
        <ele>111</ele>
        <time>2010-12-10T17:26:20Z</time>
      </trkpt>
      <trkpt lat="49.19986" lon="-0.38661">
        <ele>111</ele>
        <time>2010-12-10T17:26:22Z</time>
      </trkpt>
      <trkpt lat="49.19989" lon="-0.38667">
        <ele>111</ele>
        <time>2010-12-10T17:26:24Z</time>
      </trkpt>
      <trkpt lat="49.19993" lon="-0.38673">
        <ele>111</ele>
        <time>2010-12-10T17:26:26Z</time>
      </trkpt>
      <trkpt lat="49.19996" lon="-0.38678">
        <ele>111</ele>
        <time>2010-12-10T17:26:28Z</time>
      </trkpt>
      <trkpt lat="49.2" lon="-0.38683">
        <ele>111</ele>
        <time>2010-12-10T17:26:30Z</time>
      </trkpt>
      <trkpt lat="49.20003" lon="-0.38688">
        <ele>110</ele>
        <time>2010-12-10T17:26:32Z</time>
      </trkpt>
      <trkpt lat="49.20007" lon="-0.38694">
        <ele>110</ele>
        <time>2010-12-10T17:26:34Z</time>
      </trkpt>
      <trkpt lat="49.2001" lon="-0.387">
        <ele>110</ele>
        <time>2010-12-10T17:26:36Z</time>
      </trkpt>
      <trkpt lat="49.20014" lon="-0.38705">
        <ele>110</ele>
        <time>2010-12-10T17:26:38Z</time>
      </trkpt>
      <trkpt lat="49.20017" lon="-0.38711">
        <ele>110</ele>
        <time>2010-12-10T17:26:40Z</time>
      </trkpt>
      <trkpt lat="49.20021" lon="-0.38716">
        <ele>110</ele>
        <time>2010-12-10T17:26:42Z</time>
      </trkpt>
      <trkpt lat="49.20025" lon="-0.38724">
        <ele>110</ele>
        <time>2010-12-10T17:26:45Z</time>
      </trkpt>
      <trkpt lat="49.20029" lon="-0.38729">
        <ele>110</ele>
        <time>2010-12-10T17:26:47Z</time>
      </trkpt>
      <trkpt lat="49.20032" lon="-0.38734">
        <ele>110</ele>
        <time>2010-12-10T17:26:49Z</time>
      </trkpt>
      <trkpt lat="49.20036" lon="-0.3874">
        <ele>110</ele>
        <time>2010-12-10T17:26:51Z</time>
      </trkpt>
      <trkpt lat="49.20039" lon="-0.38745">
        <ele>111</ele>
        <time>2010-12-10T17:26:53Z</time>
      </trkpt>
      <trkpt lat="49.20044" lon="-0.38753">
        <ele>111</ele>
        <time>2010-12-10T17:26:56Z</time>
      </trkpt>
      <trkpt lat="49.20047" lon="-0.38758">
        <ele>111</ele>
        <time>2010-12-10T17:26:58Z</time>
      </trkpt>
      <trkpt lat="49.20052" lon="-0.38766">
        <ele>111</ele>
        <time>2010-12-10T17:27:01Z</time>
      </trkpt>
      <trkpt lat="49.20055" lon="-0.38771">
        <ele>111</ele>
        <time>2010-12-10T17:27:03Z</time>
      </trkpt>
      <trkpt lat="49.2006" lon="-0.38776">
        <ele>111</ele>
        <time>2010-12-10T17:27:05Z</time>
      </trkpt>
      <trkpt lat="49.20063" lon="-0.38782">
        <ele>111</ele>
        <time>2010-12-10T17:27:07Z</time>
      </trkpt>
      <trkpt lat="49.20067" lon="-0.38787">
        <ele>111</ele>
        <time>2010-12-10T17:27:09Z</time>
      </trkpt>
      <trkpt lat="49.2007" lon="-0.38793">
        <ele>111</ele>
        <time>2010-12-10T17:27:11Z</time>
      </trkpt>
      <trkpt lat="49.20073" lon="-0.38799">
        <ele>111</ele>
        <time>2010-12-10T17:27:13Z</time>
      </trkpt>
      <trkpt lat="49.20076" lon="-0.38804">
        <ele>111</ele>
        <time>2010-12-10T17:27:15Z</time>
      </trkpt>
      <trkpt lat="49.20077" lon="-0.38812">
        <ele>111</ele>
        <time>2010-12-10T17:27:17Z</time>
      </trkpt>
      <trkpt lat="49.20077" lon="-0.38822">
        <ele>111</ele>
        <time>2010-12-10T17:27:20Z</time>
      </trkpt>
      <trkpt lat="49.20077" lon="-0.38829">
        <ele>111</ele>
        <time>2010-12-10T17:27:22Z</time>
      </trkpt>
      <trkpt lat="49.20078" lon="-0.38836">
        <ele>112</ele>
        <time>2010-12-10T17:27:24Z</time>
      </trkpt>
      <trkpt lat="49.20079" lon="-0.38845">
        <ele>112</ele>
        <time>2010-12-10T17:27:27Z</time>
      </trkpt>
      <trkpt lat="49.20082" lon="-0.38852">
        <ele>112</ele>
        <time>2010-12-10T17:27:30Z</time>
      </trkpt>
      <trkpt lat="49.20088" lon="-0.38854">
        <ele>112</ele>
        <time>2010-12-10T17:27:33Z</time>
      </trkpt>
      <trkpt lat="49.20095" lon="-0.38853">
        <ele>112</ele>
        <time>2010-12-10T17:27:36Z</time>
      </trkpt>
      <trkpt lat="49.20099" lon="-0.38852">
        <ele>112</ele>
        <time>2010-12-10T17:27:38Z</time>
      </trkpt>
      <trkpt lat="49.20106" lon="-0.38853">
        <ele>112</ele>
        <time>2010-12-10T17:27:41Z</time>
      </trkpt>
      <trkpt lat="49.20112" lon="-0.38858">
        <ele>112</ele>
        <time>2010-12-10T17:27:44Z</time>
      </trkpt>
      <trkpt lat="49.20117" lon="-0.38858">
        <ele>113</ele>
        <time>2010-12-10T17:27:47Z</time>
      </trkpt>
      <trkpt lat="49.20122" lon="-0.38857">
        <ele>113</ele>
        <time>2010-12-10T17:27:49Z</time>
      </trkpt>
      <trkpt lat="49.20126" lon="-0.38859">
        <ele>113</ele>
        <time>2010-12-10T17:27:51Z</time>
      </trkpt>
      <trkpt lat="49.2013" lon="-0.38861">
        <ele>113</ele>
        <time>2010-12-10T17:27:53Z</time>
      </trkpt>
      <trkpt lat="49.20135" lon="-0.38867">
        <ele>114</ele>
        <time>2010-12-10T17:27:56Z</time>
      </trkpt>
      <trkpt lat="49.20139" lon="-0.38871">
        <ele>114</ele>
        <time>2010-12-10T17:27:58Z</time>
      </trkpt>
      <trkpt lat="49.20144" lon="-0.38877">
        <ele>114</ele>
        <time>2010-12-10T17:28:01Z</time>
      </trkpt>
      <trkpt lat="49.20149" lon="-0.38883">
        <ele>114</ele>
        <time>2010-12-10T17:28:04Z</time>
      </trkpt>
      <trkpt lat="49.20152" lon="-0.38889">
        <ele>114</ele>
        <time>2010-12-10T17:28:06Z</time>
      </trkpt>
      <trkpt lat="49.20156" lon="-0.38896">
        <ele>114</ele>
        <time>2010-12-10T17:28:09Z</time>
      </trkpt>
      <trkpt lat="49.20159" lon="-0.38901">
        <ele>115</ele>
        <time>2010-12-10T17:28:11Z</time>
      </trkpt>
      <trkpt lat="49.20163" lon="-0.38907">
        <ele>115</ele>
        <time>2010-12-10T17:28:13Z</time>
      </trkpt>
      <trkpt lat="49.20166" lon="-0.38914">
        <ele>115</ele>
        <time>2010-12-10T17:28:16Z</time>
      </trkpt>
      <trkpt lat="49.20171" lon="-0.38922">
        <ele>116</ele>
        <time>2010-12-10T17:28:19Z</time>
      </trkpt>
      <trkpt lat="49.20176" lon="-0.3893">
        <ele>116</ele>
        <time>2010-12-10T17:28:22Z</time>
      </trkpt>
      <trkpt lat="49.20179" lon="-0.38935">
        <ele>116</ele>
        <time>2010-12-10T17:28:24Z</time>
      </trkpt>
      <trkpt lat="49.20183" lon="-0.38941">
        <ele>116</ele>
        <time>2010-12-10T17:28:26Z</time>
      </trkpt>
      <trkpt lat="49.20186" lon="-0.38947">
        <ele>116</ele>
        <time>2010-12-10T17:28:28Z</time>
      </trkpt>
      <trkpt lat="49.20189" lon="-0.38955">
        <ele>117</ele>
        <time>2010-12-10T17:28:31Z</time>
      </trkpt>
      <trkpt lat="49.20193" lon="-0.38961">
        <ele>117</ele>
        <time>2010-12-10T17:28:33Z</time>
      </trkpt>
      <trkpt lat="49.20196" lon="-0.38966">
        <ele>116</ele>
        <time>2010-12-10T17:28:35Z</time>
      </trkpt>
      <trkpt lat="49.202" lon="-0.38972">
        <ele>116</ele>
        <time>2010-12-10T17:28:37Z</time>
      </trkpt>
      <trkpt lat="49.20203" lon="-0.38978">
        <ele>115</ele>
        <time>2010-12-10T17:28:39Z</time>
      </trkpt>
      <trkpt lat="49.20208" lon="-0.38984">
        <ele>114</ele>
        <time>2010-12-10T17:28:41Z</time>
      </trkpt>
      <trkpt lat="49.20211" lon="-0.38988">
        <ele>114</ele>
        <time>2010-12-10T17:28:43Z</time>
      </trkpt>
      <trkpt lat="49.20215" lon="-0.38993">
        <ele>114</ele>
        <time>2010-12-10T17:28:45Z</time>
      </trkpt>
      <trkpt lat="49.20218" lon="-0.38999">
        <ele>115</ele>
        <time>2010-12-10T17:28:47Z</time>
      </trkpt>
      <trkpt lat="49.20222" lon="-0.39004">
        <ele>115</ele>
        <time>2010-12-10T17:28:49Z</time>
      </trkpt>
      <trkpt lat="49.20225" lon="-0.3901">
        <ele>115</ele>
        <time>2010-12-10T17:28:51Z</time>
      </trkpt>
      <trkpt lat="49.20228" lon="-0.39015">
        <ele>116</ele>
        <time>2010-12-10T17:28:53Z</time>
      </trkpt>
      <trkpt lat="49.20231" lon="-0.39021">
        <ele>116</ele>
        <time>2010-12-10T17:28:55Z</time>
      </trkpt>
      <trkpt lat="49.20235" lon="-0.39027">
        <ele>116</ele>
        <time>2010-12-10T17:28:57Z</time>
      </trkpt>
      <trkpt lat="49.20238" lon="-0.39033">
        <ele>117</ele>
        <time>2010-12-10T17:28:59Z</time>
      </trkpt>
      <trkpt lat="49.20241" lon="-0.39039">
        <ele>117</ele>
        <time>2010-12-10T17:29:01Z</time>
      </trkpt>
      <trkpt lat="49.20245" lon="-0.39044">
        <ele>117</ele>
        <time>2010-12-10T17:29:03Z</time>
      </trkpt>
      <trkpt lat="49.20249" lon="-0.3905">
        <ele>117</ele>
        <time>2010-12-10T17:29:05Z</time>
      </trkpt>
      <trkpt lat="49.20252" lon="-0.39055">
        <ele>116</ele>
        <time>2010-12-10T17:29:07Z</time>
      </trkpt>
      <trkpt lat="49.20256" lon="-0.3906">
        <ele>116</ele>
        <time>2010-12-10T17:29:09Z</time>
      </trkpt>
      <trkpt lat="49.2026" lon="-0.39066">
        <ele>116</ele>
        <time>2010-12-10T17:29:11Z</time>
      </trkpt>
      <trkpt lat="49.20263" lon="-0.39072">
        <ele>116</ele>
        <time>2010-12-10T17:29:13Z</time>
      </trkpt>
      <trkpt lat="49.20267" lon="-0.39077">
        <ele>116</ele>
        <time>2010-12-10T17:29:15Z</time>
      </trkpt>
      <trkpt lat="49.20271" lon="-0.39082">
        <ele>116</ele>
        <time>2010-12-10T17:29:17Z</time>
      </trkpt>
      <trkpt lat="49.20274" lon="-0.39087">
        <ele>116</ele>
        <time>2010-12-10T17:29:19Z</time>
      </trkpt>
      <trkpt lat="49.2028" lon="-0.39092">
        <ele>116</ele>
        <time>2010-12-10T17:29:22Z</time>
      </trkpt>
      <trkpt lat="49.20286" lon="-0.39092">
        <ele>117</ele>
        <time>2010-12-10T17:29:25Z</time>
      </trkpt>
      <trkpt lat="49.20292" lon="-0.3909">
        <ele>117</ele>
        <time>2010-12-10T17:29:28Z</time>
      </trkpt>
      <trkpt lat="49.20296" lon="-0.39086">
        <ele>117</ele>
        <time>2010-12-10T17:29:30Z</time>
      </trkpt>
      <trkpt lat="49.20298" lon="-0.39079">
        <ele>117</ele>
        <time>2010-12-10T17:29:32Z</time>
      </trkpt>
      <trkpt lat="49.20302" lon="-0.39071">
        <ele>117</ele>
        <time>2010-12-10T17:29:35Z</time>
      </trkpt>
      <trkpt lat="49.20304" lon="-0.39064">
        <ele>117</ele>
        <time>2010-12-10T17:29:37Z</time>
      </trkpt>
      <trkpt lat="49.20305" lon="-0.39057">
        <ele>116</ele>
        <time>2010-12-10T17:29:39Z</time>
      </trkpt>
      <trkpt lat="49.20307" lon="-0.3905">
        <ele>117</ele>
        <time>2010-12-10T17:29:41Z</time>
      </trkpt>
      <trkpt lat="49.20309" lon="-0.39044">
        <ele>117</ele>
        <time>2010-12-10T17:29:43Z</time>
      </trkpt>
      <trkpt lat="49.20311" lon="-0.39035">
        <ele>117</ele>
        <time>2010-12-10T17:29:46Z</time>
      </trkpt>
      <trkpt lat="49.20312" lon="-0.39028">
        <ele>117</ele>
        <time>2010-12-10T17:29:48Z</time>
      </trkpt>
      <trkpt lat="49.20313" lon="-0.39021">
        <ele>117</ele>
        <time>2010-12-10T17:29:50Z</time>
      </trkpt>
      <trkpt lat="49.20316" lon="-0.39014">
        <ele>117</ele>
        <time>2010-12-10T17:29:52Z</time>
      </trkpt>
      <trkpt lat="49.20318" lon="-0.39007">
        <ele>118</ele>
        <time>2010-12-10T17:29:54Z</time>
      </trkpt>
      <trkpt lat="49.20319" lon="-0.39001">
        <ele>118</ele>
        <time>2010-12-10T17:29:56Z</time>
      </trkpt>
      <trkpt lat="49.20321" lon="-0.38994">
        <ele>118</ele>
        <time>2010-12-10T17:29:58Z</time>
      </trkpt>
      <trkpt lat="49.20323" lon="-0.38988">
        <ele>118</ele>
        <time>2010-12-10T17:30:00Z</time>
      </trkpt>
      <trkpt lat="49.20325" lon="-0.38981">
        <ele>118</ele>
        <time>2010-12-10T17:30:02Z</time>
      </trkpt>
      <trkpt lat="49.20326" lon="-0.38974">
        <ele>118</ele>
        <time>2010-12-10T17:30:04Z</time>
      </trkpt>
      <trkpt lat="49.20328" lon="-0.38968">
        <ele>119</ele>
        <time>2010-12-10T17:30:06Z</time>
      </trkpt>
      <trkpt lat="49.20331" lon="-0.38961">
        <ele>118</ele>
        <time>2010-12-10T17:30:08Z</time>
      </trkpt>
      <trkpt lat="49.20331" lon="-0.38954">
        <ele>118</ele>
        <time>2010-12-10T17:30:10Z</time>
      </trkpt>
      <trkpt lat="49.20333" lon="-0.38947">
        <ele>118</ele>
        <time>2010-12-10T17:30:12Z</time>
      </trkpt>
      <trkpt lat="49.20334" lon="-0.3894">
        <ele>118</ele>
        <time>2010-12-10T17:30:14Z</time>
      </trkpt>
      <trkpt lat="49.20335" lon="-0.38933">
        <ele>118</ele>
        <time>2010-12-10T17:30:16Z</time>
      </trkpt>
      <trkpt lat="49.20336" lon="-0.38926">
        <ele>118</ele>
        <time>2010-12-10T17:30:18Z</time>
      </trkpt>
      <trkpt lat="49.20338" lon="-0.38919">
        <ele>119</ele>
        <time>2010-12-10T17:30:20Z</time>
      </trkpt>
      <trkpt lat="49.20339" lon="-0.38912">
        <ele>119</ele>
        <time>2010-12-10T17:30:22Z</time>
      </trkpt>
      <trkpt lat="49.2034" lon="-0.38905">
        <ele>119</ele>
        <time>2010-12-10T17:30:24Z</time>
      </trkpt>
      <trkpt lat="49.20342" lon="-0.38898">
        <ele>118</ele>
        <time>2010-12-10T17:30:26Z</time>
      </trkpt>
      <trkpt lat="49.20343" lon="-0.3889">
        <ele>119</ele>
        <time>2010-12-10T17:30:28Z</time>
      </trkpt>
      <trkpt lat="49.20345" lon="-0.38883">
        <ele>119</ele>
        <time>2010-12-10T17:30:30Z</time>
      </trkpt>
      <trkpt lat="49.20346" lon="-0.38875">
        <ele>119</ele>
        <time>2010-12-10T17:30:32Z</time>
      </trkpt>
      <trkpt lat="49.20347" lon="-0.38867">
        <ele>119</ele>
        <time>2010-12-10T17:30:34Z</time>
      </trkpt>
      <trkpt lat="49.20349" lon="-0.3886">
        <ele>119</ele>
        <time>2010-12-10T17:30:36Z</time>
      </trkpt>
      <trkpt lat="49.2035" lon="-0.38852">
        <ele>118</ele>
        <time>2010-12-10T17:30:38Z</time>
      </trkpt>
      <trkpt lat="49.20352" lon="-0.38845">
        <ele>118</ele>
        <time>2010-12-10T17:30:40Z</time>
      </trkpt>
      <trkpt lat="49.20354" lon="-0.38839">
        <ele>118</ele>
        <time>2010-12-10T17:30:42Z</time>
      </trkpt>
      <trkpt lat="49.20355" lon="-0.38832">
        <ele>118</ele>
        <time>2010-12-10T17:30:44Z</time>
      </trkpt>
      <trkpt lat="49.20357" lon="-0.38824">
        <ele>118</ele>
        <time>2010-12-10T17:30:46Z</time>
      </trkpt>
      <trkpt lat="49.20358" lon="-0.38817">
        <ele>118</ele>
        <time>2010-12-10T17:30:48Z</time>
      </trkpt>
      <trkpt lat="49.2036" lon="-0.3881">
        <ele>118</ele>
        <time>2010-12-10T17:30:50Z</time>
      </trkpt>
      <trkpt lat="49.20361" lon="-0.38803">
        <ele>118</ele>
        <time>2010-12-10T17:30:52Z</time>
      </trkpt>
      <trkpt lat="49.20362" lon="-0.38795">
        <ele>118</ele>
        <time>2010-12-10T17:30:54Z</time>
      </trkpt>
      <trkpt lat="49.20364" lon="-0.38786">
        <ele>117</ele>
        <time>2010-12-10T17:30:57Z</time>
      </trkpt>
      <trkpt lat="49.20365" lon="-0.38778">
        <ele>118</ele>
        <time>2010-12-10T17:30:59Z</time>
      </trkpt>
      <trkpt lat="49.20368" lon="-0.38771">
        <ele>118</ele>
        <time>2010-12-10T17:31:01Z</time>
      </trkpt>
      <trkpt lat="49.20369" lon="-0.38762">
        <ele>118</ele>
        <time>2010-12-10T17:31:04Z</time>
      </trkpt>
      <trkpt lat="49.20371" lon="-0.38755">
        <ele>118</ele>
        <time>2010-12-10T17:31:06Z</time>
      </trkpt>
      <trkpt lat="49.20372" lon="-0.38746">
        <ele>118</ele>
        <time>2010-12-10T17:31:09Z</time>
      </trkpt>
      <trkpt lat="49.20375" lon="-0.38738">
        <ele>118</ele>
        <time>2010-12-10T17:31:11Z</time>
      </trkpt>
      <trkpt lat="49.20376" lon="-0.38731">
        <ele>118</ele>
        <time>2010-12-10T17:31:13Z</time>
      </trkpt>
      <trkpt lat="49.20378" lon="-0.38725">
        <ele>119</ele>
        <time>2010-12-10T17:31:15Z</time>
      </trkpt>
      <trkpt lat="49.2038" lon="-0.38718">
        <ele>119</ele>
        <time>2010-12-10T17:31:17Z</time>
      </trkpt>
      <trkpt lat="49.20382" lon="-0.3871">
        <ele>119</ele>
        <time>2010-12-10T17:31:19Z</time>
      </trkpt>
      <trkpt lat="49.20384" lon="-0.38703">
        <ele>119</ele>
        <time>2010-12-10T17:31:21Z</time>
      </trkpt>
      <trkpt lat="49.20386" lon="-0.38696">
        <ele>119</ele>
        <time>2010-12-10T17:31:23Z</time>
      </trkpt>
      <trkpt lat="49.20389" lon="-0.38687">
        <ele>120</ele>
        <time>2010-12-10T17:31:26Z</time>
      </trkpt>
      <trkpt lat="49.20391" lon="-0.38679">
        <ele>120</ele>
        <time>2010-12-10T17:31:28Z</time>
      </trkpt>
      <trkpt lat="49.20392" lon="-0.38672">
        <ele>120</ele>
        <time>2010-12-10T17:31:30Z</time>
      </trkpt>
      <trkpt lat="49.20394" lon="-0.38665">
        <ele>121</ele>
        <time>2010-12-10T17:31:32Z</time>
      </trkpt>
      <trkpt lat="49.20397" lon="-0.38657">
        <ele>121</ele>
        <time>2010-12-10T17:31:34Z</time>
      </trkpt>
      <trkpt lat="49.20399" lon="-0.38651">
        <ele>121</ele>
        <time>2010-12-10T17:31:36Z</time>
      </trkpt>
      <trkpt lat="49.204" lon="-0.38644">
        <ele>121</ele>
        <time>2010-12-10T17:31:38Z</time>
      </trkpt>
      <trkpt lat="49.20402" lon="-0.38637">
        <ele>120</ele>
        <time>2010-12-10T17:31:40Z</time>
      </trkpt>
      <trkpt lat="49.20404" lon="-0.3863">
        <ele>121</ele>
        <time>2010-12-10T17:31:42Z</time>
      </trkpt>
      <trkpt lat="49.20407" lon="-0.38622">
        <ele>120</ele>
        <time>2010-12-10T17:31:44Z</time>
      </trkpt>
      <trkpt lat="49.20408" lon="-0.38616">
        <ele>120</ele>
        <time>2010-12-10T17:31:46Z</time>
      </trkpt>
      <trkpt lat="49.20411" lon="-0.38609">
        <ele>120</ele>
        <time>2010-12-10T17:31:48Z</time>
      </trkpt>
      <trkpt lat="49.20414" lon="-0.386">
        <ele>120</ele>
        <time>2010-12-10T17:31:51Z</time>
      </trkpt>
      <trkpt lat="49.20416" lon="-0.38593">
        <ele>120</ele>
        <time>2010-12-10T17:31:53Z</time>
      </trkpt>
      <trkpt lat="49.20419" lon="-0.38585">
        <ele>120</ele>
        <time>2010-12-10T17:31:55Z</time>
      </trkpt>
      <trkpt lat="49.20422" lon="-0.38579">
        <ele>120</ele>
        <time>2010-12-10T17:31:57Z</time>
      </trkpt>
      <trkpt lat="49.20425" lon="-0.3857">
        <ele>120</ele>
        <time>2010-12-10T17:32:00Z</time>
      </trkpt>
      <trkpt lat="49.20427" lon="-0.38563">
        <ele>120</ele>
        <time>2010-12-10T17:32:02Z</time>
      </trkpt>
      <trkpt lat="49.2043" lon="-0.38554">
        <ele>120</ele>
        <time>2010-12-10T17:32:05Z</time>
      </trkpt>
      <trkpt lat="49.20431" lon="-0.38548">
        <ele>120</ele>
        <time>2010-12-10T17:32:07Z</time>
      </trkpt>
      <trkpt lat="49.20434" lon="-0.38538">
        <ele>120</ele>
        <time>2010-12-10T17:32:10Z</time>
      </trkpt>
      <trkpt lat="49.20436" lon="-0.38532">
        <ele>120</ele>
        <time>2010-12-10T17:32:12Z</time>
      </trkpt>
      <trkpt lat="49.20438" lon="-0.38525">
        <ele>120</ele>
        <time>2010-12-10T17:32:14Z</time>
      </trkpt>
      <trkpt lat="49.2044" lon="-0.38519">
        <ele>120</ele>
        <time>2010-12-10T17:32:16Z</time>
      </trkpt>
      <trkpt lat="49.20443" lon="-0.38513">
        <ele>120</ele>
        <time>2010-12-10T17:32:18Z</time>
      </trkpt>
      <trkpt lat="49.20445" lon="-0.38507">
        <ele>119</ele>
        <time>2010-12-10T17:32:20Z</time>
      </trkpt>
      <trkpt lat="49.20448" lon="-0.38501">
        <ele>119</ele>
        <time>2010-12-10T17:32:22Z</time>
      </trkpt>
      <trkpt lat="49.20452" lon="-0.38492">
        <ele>119</ele>
        <time>2010-12-10T17:32:25Z</time>
      </trkpt>
      <trkpt lat="49.20456" lon="-0.38484">
        <ele>119</ele>
        <time>2010-12-10T17:32:28Z</time>
      </trkpt>
      <trkpt lat="49.20458" lon="-0.38478">
        <ele>119</ele>
        <time>2010-12-10T17:32:30Z</time>
      </trkpt>
      <trkpt lat="49.20461" lon="-0.38469">
        <ele>119</ele>
        <time>2010-12-10T17:32:33Z</time>
      </trkpt>
      <trkpt lat="49.20465" lon="-0.38462">
        <ele>119</ele>
        <time>2010-12-10T17:32:35Z</time>
      </trkpt>
      <trkpt lat="49.20468" lon="-0.38456">
        <ele>120</ele>
        <time>2010-12-10T17:32:37Z</time>
      </trkpt>
      <trkpt lat="49.20471" lon="-0.38449">
        <ele>120</ele>
        <time>2010-12-10T17:32:39Z</time>
      </trkpt>
      <trkpt lat="49.20473" lon="-0.38443">
        <ele>120</ele>
        <time>2010-12-10T17:32:41Z</time>
      </trkpt>
      <trkpt lat="49.20475" lon="-0.38437">
        <ele>120</ele>
        <time>2010-12-10T17:32:43Z</time>
      </trkpt>
      <trkpt lat="49.20478" lon="-0.3843">
        <ele>120</ele>
        <time>2010-12-10T17:32:45Z</time>
      </trkpt>
      <trkpt lat="49.20481" lon="-0.38424">
        <ele>119</ele>
        <time>2010-12-10T17:32:47Z</time>
      </trkpt>
      <trkpt lat="49.20485" lon="-0.38416">
        <ele>120</ele>
        <time>2010-12-10T17:32:50Z</time>
      </trkpt>
      <trkpt lat="49.20488" lon="-0.3841">
        <ele>120</ele>
        <time>2010-12-10T17:32:52Z</time>
      </trkpt>
      <trkpt lat="49.20493" lon="-0.38402">
        <ele>119</ele>
        <time>2010-12-10T17:32:55Z</time>
      </trkpt>
      <trkpt lat="49.20495" lon="-0.38396">
        <ele>119</ele>
        <time>2010-12-10T17:32:57Z</time>
      </trkpt>
      <trkpt lat="49.205" lon="-0.38387">
        <ele>119</ele>
        <time>2010-12-10T17:33:00Z</time>
      </trkpt>
      <trkpt lat="49.20504" lon="-0.38379">
        <ele>119</ele>
        <time>2010-12-10T17:33:03Z</time>
      </trkpt>
      <trkpt lat="49.20508" lon="-0.38371">
        <ele>119</ele>
        <time>2010-12-10T17:33:06Z</time>
      </trkpt>
      <trkpt lat="49.20511" lon="-0.38363">
        <ele>120</ele>
        <time>2010-12-10T17:33:09Z</time>
      </trkpt>
      <trkpt lat="49.20514" lon="-0.38357">
        <ele>120</ele>
        <time>2010-12-10T17:33:11Z</time>
      </trkpt>
      <trkpt lat="49.20518" lon="-0.38349">
        <ele>120</ele>
        <time>2010-12-10T17:33:14Z</time>
      </trkpt>
      <trkpt lat="49.20522" lon="-0.38342">
        <ele>120</ele>
        <time>2010-12-10T17:33:17Z</time>
      </trkpt>
      <trkpt lat="49.20526" lon="-0.38333">
        <ele>120</ele>
        <time>2010-12-10T17:33:20Z</time>
      </trkpt>
      <trkpt lat="49.2053" lon="-0.38325">
        <ele>121</ele>
        <time>2010-12-10T17:33:23Z</time>
      </trkpt>
      <trkpt lat="49.20534" lon="-0.3832">
        <ele>121</ele>
        <time>2010-12-10T17:33:25Z</time>
      </trkpt>
      <trkpt lat="49.20537" lon="-0.38313">
        <ele>121</ele>
        <time>2010-12-10T17:33:27Z</time>
      </trkpt>
      <trkpt lat="49.2054" lon="-0.38308">
        <ele>121</ele>
        <time>2010-12-10T17:33:29Z</time>
      </trkpt>
      <trkpt lat="49.20544" lon="-0.38302">
        <ele>121</ele>
        <time>2010-12-10T17:33:31Z</time>
      </trkpt>
      <trkpt lat="49.20547" lon="-0.38296">
        <ele>121</ele>
        <time>2010-12-10T17:33:33Z</time>
      </trkpt>
      <trkpt lat="49.20552" lon="-0.38289">
        <ele>120</ele>
        <time>2010-12-10T17:33:35Z</time>
      </trkpt>
      <trkpt lat="49.20555" lon="-0.38283">
        <ele>121</ele>
        <time>2010-12-10T17:33:37Z</time>
      </trkpt>
      <trkpt lat="49.20559" lon="-0.38276">
        <ele>121</ele>
        <time>2010-12-10T17:33:39Z</time>
      </trkpt>
      <trkpt lat="49.20562" lon="-0.38271">
        <ele>121</ele>
        <time>2010-12-10T17:33:41Z</time>
      </trkpt>
      <trkpt lat="49.20565" lon="-0.38264">
        <ele>120</ele>
        <time>2010-12-10T17:33:43Z</time>
      </trkpt>
      <trkpt lat="49.20568" lon="-0.38259">
        <ele>120</ele>
        <time>2010-12-10T17:33:45Z</time>
      </trkpt>
      <trkpt lat="49.20571" lon="-0.38254">
        <ele>120</ele>
        <time>2010-12-10T17:33:47Z</time>
      </trkpt>
      <trkpt lat="49.20575" lon="-0.38248">
        <ele>120</ele>
        <time>2010-12-10T17:33:49Z</time>
      </trkpt>
      <trkpt lat="49.20579" lon="-0.38242">
        <ele>119</ele>
        <time>2010-12-10T17:33:51Z</time>
      </trkpt>
      <trkpt lat="49.20583" lon="-0.38237">
        <ele>119</ele>
        <time>2010-12-10T17:33:53Z</time>
      </trkpt>
      <trkpt lat="49.20587" lon="-0.3823">
        <ele>119</ele>
        <time>2010-12-10T17:33:56Z</time>
      </trkpt>
      <trkpt lat="49.2059" lon="-0.38224">
        <ele>119</ele>
        <time>2010-12-10T17:33:58Z</time>
      </trkpt>
      <trkpt lat="49.20595" lon="-0.38216">
        <ele>119</ele>
        <time>2010-12-10T17:34:01Z</time>
      </trkpt>
      <trkpt lat="49.20598" lon="-0.3821">
        <ele>119</ele>
        <time>2010-12-10T17:34:03Z</time>
      </trkpt>
      <trkpt lat="49.20601" lon="-0.38204">
        <ele>119</ele>
        <time>2010-12-10T17:34:05Z</time>
      </trkpt>
      <trkpt lat="49.20605" lon="-0.38198">
        <ele>120</ele>
        <time>2010-12-10T17:34:07Z</time>
      </trkpt>
      <trkpt lat="49.20608" lon="-0.38193">
        <ele>119</ele>
        <time>2010-12-10T17:34:09Z</time>
      </trkpt>
      <trkpt lat="49.20613" lon="-0.38186">
        <ele>119</ele>
        <time>2010-12-10T17:34:12Z</time>
      </trkpt>
      <trkpt lat="49.20617" lon="-0.38178">
        <ele>119</ele>
        <time>2010-12-10T17:34:15Z</time>
      </trkpt>
      <trkpt lat="49.2062" lon="-0.38173">
        <ele>119</ele>
        <time>2010-12-10T17:34:17Z</time>
      </trkpt>
      <trkpt lat="49.20622" lon="-0.38167">
        <ele>119</ele>
        <time>2010-12-10T17:34:19Z</time>
      </trkpt>
      <trkpt lat="49.20626" lon="-0.38161">
        <ele>119</ele>
        <time>2010-12-10T17:34:21Z</time>
      </trkpt>
      <trkpt lat="49.20629" lon="-0.38156">
        <ele>119</ele>
        <time>2010-12-10T17:34:23Z</time>
      </trkpt>
      <trkpt lat="49.20632" lon="-0.3815">
        <ele>118</ele>
        <time>2010-12-10T17:34:25Z</time>
      </trkpt>
      <trkpt lat="49.20635" lon="-0.38145">
        <ele>118</ele>
        <time>2010-12-10T17:34:27Z</time>
      </trkpt>
      <trkpt lat="49.20639" lon="-0.38139">
        <ele>118</ele>
        <time>2010-12-10T17:34:29Z</time>
      </trkpt>
      <trkpt lat="49.20643" lon="-0.3813">
        <ele>118</ele>
        <time>2010-12-10T17:34:32Z</time>
      </trkpt>
      <trkpt lat="49.20646" lon="-0.38125">
        <ele>118</ele>
        <time>2010-12-10T17:34:34Z</time>
      </trkpt>
      <trkpt lat="49.2065" lon="-0.38117">
        <ele>119</ele>
        <time>2010-12-10T17:34:37Z</time>
      </trkpt>
      <trkpt lat="49.20653" lon="-0.38111">
        <ele>119</ele>
        <time>2010-12-10T17:34:39Z</time>
      </trkpt>
      <trkpt lat="49.20657" lon="-0.38106">
        <ele>119</ele>
        <time>2010-12-10T17:34:41Z</time>
      </trkpt>
      <trkpt lat="49.20661" lon="-0.38099">
        <ele>119</ele>
        <time>2010-12-10T17:34:44Z</time>
      </trkpt>
      <trkpt lat="49.20664" lon="-0.38093">
        <ele>119</ele>
        <time>2010-12-10T17:34:45Z</time>
      </trkpt>
      <trkpt lat="49.20667" lon="-0.38087">
        <ele>119</ele>
        <time>2010-12-10T17:34:47Z</time>
      </trkpt>
      <trkpt lat="49.20672" lon="-0.38079">
        <ele>119</ele>
        <time>2010-12-10T17:34:50Z</time>
      </trkpt>
      <trkpt lat="49.20677" lon="-0.38072">
        <ele>118</ele>
        <time>2010-12-10T17:34:52Z</time>
      </trkpt>
      <trkpt lat="49.2068" lon="-0.38066">
        <ele>118</ele>
        <time>2010-12-10T17:34:54Z</time>
      </trkpt>
      <trkpt lat="49.20683" lon="-0.3806">
        <ele>119</ele>
        <time>2010-12-10T17:34:56Z</time>
      </trkpt>
      <trkpt lat="49.20686" lon="-0.38055">
        <ele>118</ele>
        <time>2010-12-10T17:34:58Z</time>
      </trkpt>
      <trkpt lat="49.20689" lon="-0.38048">
        <ele>118</ele>
        <time>2010-12-10T17:35:01Z</time>
      </trkpt>
      <trkpt lat="49.20693" lon="-0.38041">
        <ele>118</ele>
        <time>2010-12-10T17:35:02Z</time>
      </trkpt>
      <trkpt lat="49.20697" lon="-0.38036">
        <ele>118</ele>
        <time>2010-12-10T17:35:04Z</time>
      </trkpt>
      <trkpt lat="49.20701" lon="-0.3803">
        <ele>117</ele>
        <time>2010-12-10T17:35:06Z</time>
      </trkpt>
      <trkpt lat="49.20706" lon="-0.38023">
        <ele>116</ele>
        <time>2010-12-10T17:35:08Z</time>
      </trkpt>
      <trkpt lat="49.20709" lon="-0.38017">
        <ele>116</ele>
        <time>2010-12-10T17:35:10Z</time>
      </trkpt>
      <trkpt lat="49.20713" lon="-0.38011">
        <ele>116</ele>
        <time>2010-12-10T17:35:12Z</time>
      </trkpt>
      <trkpt lat="49.20716" lon="-0.38005">
        <ele>117</ele>
        <time>2010-12-10T17:35:14Z</time>
      </trkpt>
      <trkpt lat="49.20719" lon="-0.37999">
        <ele>117</ele>
        <time>2010-12-10T17:35:16Z</time>
      </trkpt>
      <trkpt lat="49.20723" lon="-0.37992">
        <ele>117</ele>
        <time>2010-12-10T17:35:18Z</time>
      </trkpt>
      <trkpt lat="49.20726" lon="-0.37986">
        <ele>116</ele>
        <time>2010-12-10T17:35:20Z</time>
      </trkpt>
      <trkpt lat="49.20729" lon="-0.37981">
        <ele>116</ele>
        <time>2010-12-10T17:35:22Z</time>
      </trkpt>
      <trkpt lat="49.20732" lon="-0.37975">
        <ele>116</ele>
        <time>2010-12-10T17:35:24Z</time>
      </trkpt>
      <trkpt lat="49.20737" lon="-0.37967">
        <ele>116</ele>
        <time>2010-12-10T17:35:27Z</time>
      </trkpt>
      <trkpt lat="49.2074" lon="-0.37961">
        <ele>116</ele>
        <time>2010-12-10T17:35:29Z</time>
      </trkpt>
      <trkpt lat="49.20744" lon="-0.37954">
        <ele>116</ele>
        <time>2010-12-10T17:35:32Z</time>
      </trkpt>
      <trkpt lat="49.20747" lon="-0.37948">
        <ele>116</ele>
        <time>2010-12-10T17:35:34Z</time>
      </trkpt>
      <trkpt lat="49.20751" lon="-0.3794">
        <ele>116</ele>
        <time>2010-12-10T17:35:37Z</time>
      </trkpt>
      <trkpt lat="49.20753" lon="-0.37934">
        <ele>116</ele>
        <time>2010-12-10T17:35:39Z</time>
      </trkpt>
      <trkpt lat="49.20757" lon="-0.37928">
        <ele>116</ele>
        <time>2010-12-10T17:35:42Z</time>
      </trkpt>
      <trkpt lat="49.2076" lon="-0.37922">
        <ele>116</ele>
        <time>2010-12-10T17:35:43Z</time>
      </trkpt>
      <trkpt lat="49.20762" lon="-0.37916">
        <ele>116</ele>
        <time>2010-12-10T17:35:45Z</time>
      </trkpt>
      <trkpt lat="49.20766" lon="-0.3791">
        <ele>116</ele>
        <time>2010-12-10T17:35:47Z</time>
      </trkpt>
      <trkpt lat="49.20768" lon="-0.37903">
        <ele>116</ele>
        <time>2010-12-10T17:35:49Z</time>
      </trkpt>
      <trkpt lat="49.20772" lon="-0.37896">
        <ele>115</ele>
        <time>2010-12-10T17:35:51Z</time>
      </trkpt>
      <trkpt lat="49.20775" lon="-0.37889">
        <ele>115</ele>
        <time>2010-12-10T17:35:53Z</time>
      </trkpt>
      <trkpt lat="49.20777" lon="-0.37884">
        <ele>115</ele>
        <time>2010-12-10T17:35:55Z</time>
      </trkpt>
      <trkpt lat="49.20781" lon="-0.37876">
        <ele>115</ele>
        <time>2010-12-10T17:35:57Z</time>
      </trkpt>
      <trkpt lat="49.20783" lon="-0.3787">
        <ele>115</ele>
        <time>2010-12-10T17:35:59Z</time>
      </trkpt>
      <trkpt lat="49.20785" lon="-0.37863">
        <ele>115</ele>
        <time>2010-12-10T17:36:01Z</time>
      </trkpt>
      <trkpt lat="49.20788" lon="-0.37857">
        <ele>115</ele>
        <time>2010-12-10T17:36:03Z</time>
      </trkpt>
      <trkpt lat="49.20791" lon="-0.37851">
        <ele>114</ele>
        <time>2010-12-10T17:36:05Z</time>
      </trkpt>
      <trkpt lat="49.20794" lon="-0.37845">
        <ele>114</ele>
        <time>2010-12-10T17:36:07Z</time>
      </trkpt>
      <trkpt lat="49.20796" lon="-0.37839">
        <ele>114</ele>
        <time>2010-12-10T17:36:09Z</time>
      </trkpt>
      <trkpt lat="49.20799" lon="-0.37833">
        <ele>114</ele>
        <time>2010-12-10T17:36:11Z</time>
      </trkpt>
      <trkpt lat="49.20802" lon="-0.37826">
        <ele>113</ele>
        <time>2010-12-10T17:36:13Z</time>
      </trkpt>
      <trkpt lat="49.20804" lon="-0.37819">
        <ele>113</ele>
        <time>2010-12-10T17:36:15Z</time>
      </trkpt>
      <trkpt lat="49.20807" lon="-0.3781">
        <ele>113</ele>
        <time>2010-12-10T17:36:18Z</time>
      </trkpt>
      <trkpt lat="49.2081" lon="-0.37804">
        <ele>113</ele>
        <time>2010-12-10T17:36:20Z</time>
      </trkpt>
      <trkpt lat="49.20813" lon="-0.37797">
        <ele>113</ele>
        <time>2010-12-10T17:36:22Z</time>
      </trkpt>
      <trkpt lat="49.20815" lon="-0.37791">
        <ele>114</ele>
        <time>2010-12-10T17:36:24Z</time>
      </trkpt>
      <trkpt lat="49.20818" lon="-0.37785">
        <ele>114</ele>
        <time>2010-12-10T17:36:26Z</time>
      </trkpt>
      <trkpt lat="49.2082" lon="-0.37779">
        <ele>114</ele>
        <time>2010-12-10T17:36:28Z</time>
      </trkpt>
      <trkpt lat="49.20822" lon="-0.37772">
        <ele>114</ele>
        <time>2010-12-10T17:36:30Z</time>
      </trkpt>
      <trkpt lat="49.20824" lon="-0.37766">
        <ele>114</ele>
        <time>2010-12-10T17:36:32Z</time>
      </trkpt>
      <trkpt lat="49.20826" lon="-0.37758">
        <ele>113</ele>
        <time>2010-12-10T17:36:34Z</time>
      </trkpt>
      <trkpt lat="49.20827" lon="-0.37751">
        <ele>113</ele>
        <time>2010-12-10T17:36:36Z</time>
      </trkpt>
      <trkpt lat="49.20827" lon="-0.37742">
        <ele>114</ele>
        <time>2010-12-10T17:36:39Z</time>
      </trkpt>
      <trkpt lat="49.20825" lon="-0.37733">
        <ele>113</ele>
        <time>2010-12-10T17:36:42Z</time>
      </trkpt>
      <trkpt lat="49.20826" lon="-0.37726">
        <ele>113</ele>
        <time>2010-12-10T17:36:44Z</time>
      </trkpt>
      <trkpt lat="49.20828" lon="-0.37719">
        <ele>112</ele>
        <time>2010-12-10T17:36:46Z</time>
      </trkpt>
      <trkpt lat="49.20833" lon="-0.37712">
        <ele>111</ele>
        <time>2010-12-10T17:36:49Z</time>
      </trkpt>
      <trkpt lat="49.20838" lon="-0.37711">
        <ele>110</ele>
        <time>2010-12-10T17:36:52Z</time>
      </trkpt>
      <trkpt lat="49.20845" lon="-0.37711">
        <ele>110</ele>
        <time>2010-12-10T17:36:55Z</time>
      </trkpt>
      <trkpt lat="49.2085" lon="-0.37704">
        <ele>110</ele>
        <time>2010-12-10T17:36:58Z</time>
      </trkpt>
      <trkpt lat="49.20854" lon="-0.37698">
        <ele>110</ele>
        <time>2010-12-10T17:37:00Z</time>
      </trkpt>
      <trkpt lat="49.20857" lon="-0.37691">
        <ele>110</ele>
        <time>2010-12-10T17:37:02Z</time>
      </trkpt>
      <trkpt lat="49.2086" lon="-0.37685">
        <ele>110</ele>
        <time>2010-12-10T17:37:05Z</time>
      </trkpt>
      <trkpt lat="49.20861" lon="-0.37678">
        <ele>110</ele>
        <time>2010-12-10T17:37:06Z</time>
      </trkpt>
      <trkpt lat="49.20859" lon="-0.37671">
        <ele>110</ele>
        <time>2010-12-10T17:37:08Z</time>
      </trkpt>
      <trkpt lat="49.20857" lon="-0.37664">
        <ele>110</ele>
        <time>2010-12-10T17:37:10Z</time>
      </trkpt>
      <trkpt lat="49.20859" lon="-0.37655">
        <ele>110</ele>
        <time>2010-12-10T17:37:13Z</time>
      </trkpt>
      <trkpt lat="49.20862" lon="-0.37646">
        <ele>110</ele>
        <time>2010-12-10T17:37:16Z</time>
      </trkpt>
      <trkpt lat="49.20864" lon="-0.37637">
        <ele>110</ele>
        <time>2010-12-10T17:37:19Z</time>
      </trkpt>
      <trkpt lat="49.20867" lon="-0.37627">
        <ele>110</ele>
        <time>2010-12-10T17:37:22Z</time>
      </trkpt>
      <trkpt lat="49.2087" lon="-0.37619">
        <ele>110</ele>
        <time>2010-12-10T17:37:25Z</time>
      </trkpt>
      <trkpt lat="49.20872" lon="-0.37613">
        <ele>110</ele>
        <time>2010-12-10T17:37:27Z</time>
      </trkpt>
      <trkpt lat="49.20874" lon="-0.37605">
        <ele>110</ele>
        <time>2010-12-10T17:37:29Z</time>
      </trkpt>
      <trkpt lat="49.20877" lon="-0.37599">
        <ele>110</ele>
        <time>2010-12-10T17:37:31Z</time>
      </trkpt>
      <trkpt lat="49.20879" lon="-0.37592">
        <ele>110</ele>
        <time>2010-12-10T17:37:33Z</time>
      </trkpt>
      <trkpt lat="49.20882" lon="-0.37585">
        <ele>111</ele>
        <time>2010-12-10T17:37:35Z</time>
      </trkpt>
      <trkpt lat="49.20883" lon="-0.37578">
        <ele>111</ele>
        <time>2010-12-10T17:37:37Z</time>
      </trkpt>
      <trkpt lat="49.20885" lon="-0.37571">
        <ele>111</ele>
        <time>2010-12-10T17:37:39Z</time>
      </trkpt>
      <trkpt lat="49.20887" lon="-0.37564">
        <ele>111</ele>
        <time>2010-12-10T17:37:41Z</time>
      </trkpt>
      <trkpt lat="49.20888" lon="-0.37557">
        <ele>111</ele>
        <time>2010-12-10T17:37:43Z</time>
      </trkpt>
      <trkpt lat="49.2089" lon="-0.3755">
        <ele>111</ele>
        <time>2010-12-10T17:37:45Z</time>
      </trkpt>
      <trkpt lat="49.20891" lon="-0.37542">
        <ele>112</ele>
        <time>2010-12-10T17:37:47Z</time>
      </trkpt>
      <trkpt lat="49.20893" lon="-0.37535">
        <ele>112</ele>
        <time>2010-12-10T17:37:49Z</time>
      </trkpt>
      <trkpt lat="49.20894" lon="-0.37527">
        <ele>112</ele>
        <time>2010-12-10T17:37:51Z</time>
      </trkpt>
      <trkpt lat="49.20895" lon="-0.37519">
        <ele>112</ele>
        <time>2010-12-10T17:37:53Z</time>
      </trkpt>
      <trkpt lat="49.20897" lon="-0.37511">
        <ele>112</ele>
        <time>2010-12-10T17:37:55Z</time>
      </trkpt>
      <trkpt lat="49.20899" lon="-0.37504">
        <ele>112</ele>
        <time>2010-12-10T17:37:57Z</time>
      </trkpt>
      <trkpt lat="49.20901" lon="-0.37495">
        <ele>112</ele>
        <time>2010-12-10T17:37:59Z</time>
      </trkpt>
      <trkpt lat="49.20902" lon="-0.37487">
        <ele>112</ele>
        <time>2010-12-10T17:38:01Z</time>
      </trkpt>
      <trkpt lat="49.20904" lon="-0.37479">
        <ele>112</ele>
        <time>2010-12-10T17:38:03Z</time>
      </trkpt>
      <trkpt lat="49.20907" lon="-0.37471">
        <ele>113</ele>
        <time>2010-12-10T17:38:05Z</time>
      </trkpt>
      <trkpt lat="49.20908" lon="-0.37463">
        <ele>112</ele>
        <time>2010-12-10T17:38:07Z</time>
      </trkpt>
      <trkpt lat="49.20909" lon="-0.37454">
        <ele>112</ele>
        <time>2010-12-10T17:38:09Z</time>
      </trkpt>
      <trkpt lat="49.2091" lon="-0.37445">
        <ele>112</ele>
        <time>2010-12-10T17:38:11Z</time>
      </trkpt>
      <trkpt lat="49.20912" lon="-0.37436">
        <ele>112</ele>
        <time>2010-12-10T17:38:13Z</time>
      </trkpt>
      <trkpt lat="49.20913" lon="-0.37427">
        <ele>112</ele>
        <time>2010-12-10T17:38:15Z</time>
      </trkpt>
      <trkpt lat="49.20915" lon="-0.37418">
        <ele>112</ele>
        <time>2010-12-10T17:38:17Z</time>
      </trkpt>
      <trkpt lat="49.20916" lon="-0.3741">
        <ele>112</ele>
        <time>2010-12-10T17:38:19Z</time>
      </trkpt>
      <trkpt lat="49.20918" lon="-0.37402">
        <ele>112</ele>
        <time>2010-12-10T17:38:21Z</time>
      </trkpt>
      <trkpt lat="49.2092" lon="-0.37394">
        <ele>111</ele>
        <time>2010-12-10T17:38:23Z</time>
      </trkpt>
      <trkpt lat="49.20921" lon="-0.37386">
        <ele>111</ele>
        <time>2010-12-10T17:38:25Z</time>
      </trkpt>
      <trkpt lat="49.20923" lon="-0.37378">
        <ele>111</ele>
        <time>2010-12-10T17:38:27Z</time>
      </trkpt>
      <trkpt lat="49.20925" lon="-0.37367">
        <ele>111</ele>
        <time>2010-12-10T17:38:29Z</time>
      </trkpt>
      <trkpt lat="49.20926" lon="-0.37357">
        <ele>111</ele>
        <time>2010-12-10T17:38:32Z</time>
      </trkpt>
      <trkpt lat="49.20927" lon="-0.37347">
        <ele>111</ele>
        <time>2010-12-10T17:38:33Z</time>
      </trkpt>
      <trkpt lat="49.20929" lon="-0.37337">
        <ele>111</ele>
        <time>2010-12-10T17:38:35Z</time>
      </trkpt>
      <trkpt lat="49.2093" lon="-0.37327">
        <ele>112</ele>
        <time>2010-12-10T17:38:37Z</time>
      </trkpt>
      <trkpt lat="49.20932" lon="-0.37317">
        <ele>112</ele>
        <time>2010-12-10T17:38:39Z</time>
      </trkpt>
      <trkpt lat="49.20933" lon="-0.37307">
        <ele>112</ele>
        <time>2010-12-10T17:38:41Z</time>
      </trkpt>
      <trkpt lat="49.20935" lon="-0.37297">
        <ele>112</ele>
        <time>2010-12-10T17:38:43Z</time>
      </trkpt>
      <trkpt lat="49.20936" lon="-0.37286">
        <ele>112</ele>
        <time>2010-12-10T17:38:45Z</time>
      </trkpt>
      <trkpt lat="49.20938" lon="-0.37275">
        <ele>111</ele>
        <time>2010-12-10T17:38:47Z</time>
      </trkpt>
      <trkpt lat="49.20939" lon="-0.37263">
        <ele>111</ele>
        <time>2010-12-10T17:38:49Z</time>
      </trkpt>
      <trkpt lat="49.20942" lon="-0.37253">
        <ele>112</ele>
        <time>2010-12-10T17:38:51Z</time>
      </trkpt>
      <trkpt lat="49.20944" lon="-0.37241">
        <ele>112</ele>
        <time>2010-12-10T17:38:53Z</time>
      </trkpt>
      <trkpt lat="49.20946" lon="-0.37231">
        <ele>112</ele>
        <time>2010-12-10T17:38:55Z</time>
      </trkpt>
      <trkpt lat="49.20948" lon="-0.37219">
        <ele>112</ele>
        <time>2010-12-10T17:38:57Z</time>
      </trkpt>
      <trkpt lat="49.20951" lon="-0.37205">
        <ele>112</ele>
        <time>2010-12-10T17:38:59Z</time>
      </trkpt>
      <trkpt lat="49.20952" lon="-0.37198">
        <ele>112</ele>
        <time>2010-12-10T17:39:00Z</time>
      </trkpt>
      <trkpt lat="49.20953" lon="-0.3719">
        <ele>112</ele>
        <time>2010-12-10T17:39:01Z</time>
      </trkpt>
      <trkpt lat="49.20954" lon="-0.37182">
        <ele>112</ele>
        <time>2010-12-10T17:39:02Z</time>
      </trkpt>
      <trkpt lat="49.20955" lon="-0.37175">
        <ele>112</ele>
        <time>2010-12-10T17:39:03Z</time>
      </trkpt>
      <trkpt lat="49.20956" lon="-0.37167">
        <ele>112</ele>
        <time>2010-12-10T17:39:04Z</time>
      </trkpt>
      <trkpt lat="49.20956" lon="-0.3716">
        <ele>112</ele>
        <time>2010-12-10T17:39:05Z</time>
      </trkpt>
      <trkpt lat="49.20956" lon="-0.37149">
        <ele>112</ele>
        <time>2010-12-10T17:39:07Z</time>
      </trkpt>
      <trkpt lat="49.20953" lon="-0.37138">
        <ele>111</ele>
        <time>2010-12-10T17:39:09Z</time>
      </trkpt>
      <trkpt lat="49.20952" lon="-0.37129">
        <ele>111</ele>
        <time>2010-12-10T17:39:11Z</time>
      </trkpt>
      <trkpt lat="49.20949" lon="-0.37122">
        <ele>111</ele>
        <time>2010-12-10T17:39:13Z</time>
      </trkpt>
      <trkpt lat="49.20946" lon="-0.37116">
        <ele>110</ele>
        <time>2010-12-10T17:39:15Z</time>
      </trkpt>
      <trkpt lat="49.20947" lon="-0.37108">
        <ele>109</ele>
        <time>2010-12-10T17:39:18Z</time>
      </trkpt>
      <trkpt lat="49.20952" lon="-0.37102">
        <ele>109</ele>
        <time>2010-12-10T17:39:21Z</time>
      </trkpt>
      <trkpt lat="49.20957" lon="-0.37101">
        <ele>108</ele>
        <time>2010-12-10T17:39:24Z</time>
      </trkpt>
      <trkpt lat="49.20963" lon="-0.37103">
        <ele>108</ele>
        <time>2010-12-10T17:39:27Z</time>
      </trkpt>
      <trkpt lat="49.20967" lon="-0.37107">
        <ele>107</ele>
        <time>2010-12-10T17:39:30Z</time>
      </trkpt>
      <trkpt lat="49.20972" lon="-0.37112">
        <ele>107</ele>
        <time>2010-12-10T17:39:33Z</time>
      </trkpt>
      <trkpt lat="49.20978" lon="-0.37116">
        <ele>107</ele>
        <time>2010-12-10T17:39:36Z</time>
      </trkpt>
      <trkpt lat="49.20985" lon="-0.37115">
        <ele>107</ele>
        <time>2010-12-10T17:39:39Z</time>
      </trkpt>
      <trkpt lat="49.20989" lon="-0.37113">
        <ele>107</ele>
        <time>2010-12-10T17:39:41Z</time>
      </trkpt>
      <trkpt lat="49.20996" lon="-0.37109">
        <ele>107</ele>
        <time>2010-12-10T17:39:44Z</time>
      </trkpt>
      <trkpt lat="49.21001" lon="-0.37106">
        <ele>107</ele>
        <time>2010-12-10T17:39:46Z</time>
      </trkpt>
      <trkpt lat="49.21005" lon="-0.37103">
        <ele>107</ele>
        <time>2010-12-10T17:39:48Z</time>
      </trkpt>
      <trkpt lat="49.21011" lon="-0.37097">
        <ele>107</ele>
        <time>2010-12-10T17:39:51Z</time>
      </trkpt>
      <trkpt lat="49.21015" lon="-0.37093">
        <ele>107</ele>
        <time>2010-12-10T17:39:53Z</time>
      </trkpt>
      <trkpt lat="49.21019" lon="-0.37089">
        <ele>107</ele>
        <time>2010-12-10T17:39:55Z</time>
      </trkpt>
      <trkpt lat="49.21024" lon="-0.37087">
        <ele>106</ele>
        <time>2010-12-10T17:39:57Z</time>
      </trkpt>
      <trkpt lat="49.21028" lon="-0.37084">
        <ele>106</ele>
        <time>2010-12-10T17:39:59Z</time>
      </trkpt>
      <trkpt lat="49.21033" lon="-0.37082">
        <ele>106</ele>
        <time>2010-12-10T17:40:01Z</time>
      </trkpt>
      <trkpt lat="49.21037" lon="-0.37079">
        <ele>106</ele>
        <time>2010-12-10T17:40:03Z</time>
      </trkpt>
      <trkpt lat="49.2104" lon="-0.37073">
        <ele>106</ele>
        <time>2010-12-10T17:40:05Z</time>
      </trkpt>
      <trkpt lat="49.21042" lon="-0.37066">
        <ele>106</ele>
        <time>2010-12-10T17:40:07Z</time>
      </trkpt>
      <trkpt lat="49.21045" lon="-0.3706">
        <ele>106</ele>
        <time>2010-12-10T17:40:09Z</time>
      </trkpt>
      <trkpt lat="49.21048" lon="-0.37055">
        <ele>106</ele>
        <time>2010-12-10T17:40:11Z</time>
      </trkpt>
      <trkpt lat="49.21053" lon="-0.37053">
        <ele>106</ele>
        <time>2010-12-10T17:40:13Z</time>
      </trkpt>
      <trkpt lat="49.2106" lon="-0.37051">
        <ele>106</ele>
        <time>2010-12-10T17:40:16Z</time>
      </trkpt>
      <trkpt lat="49.21065" lon="-0.37049">
        <ele>106</ele>
        <time>2010-12-10T17:40:18Z</time>
      </trkpt>
      <trkpt lat="49.21069" lon="-0.37046">
        <ele>106</ele>
        <time>2010-12-10T17:40:20Z</time>
      </trkpt>
      <trkpt lat="49.21074" lon="-0.37043">
        <ele>106</ele>
        <time>2010-12-10T17:40:22Z</time>
      </trkpt>
      <trkpt lat="49.21078" lon="-0.37041">
        <ele>106</ele>
        <time>2010-12-10T17:40:24Z</time>
      </trkpt>
      <trkpt lat="49.21083" lon="-0.37037">
        <ele>107</ele>
        <time>2010-12-10T17:40:27Z</time>
      </trkpt>
      <trkpt lat="49.21088" lon="-0.37035">
        <ele>107</ele>
        <time>2010-12-10T17:40:30Z</time>
      </trkpt>
      <trkpt lat="49.21092" lon="-0.37038">
        <ele>107</ele>
        <time>2010-12-10T17:40:33Z</time>
      </trkpt>
      <trkpt lat="49.21098" lon="-0.37043">
        <ele>108</ele>
        <time>2010-12-10T17:40:36Z</time>
      </trkpt>
      <trkpt lat="49.21102" lon="-0.37048">
        <ele>108</ele>
        <time>2010-12-10T17:40:38Z</time>
      </trkpt>
      <trkpt lat="49.21106" lon="-0.37054">
        <ele>109</ele>
        <time>2010-12-10T17:40:40Z</time>
      </trkpt>
      <trkpt lat="49.21108" lon="-0.3706">
        <ele>109</ele>
        <time>2010-12-10T17:40:42Z</time>
      </trkpt>
      <trkpt lat="49.21111" lon="-0.37066">
        <ele>109</ele>
        <time>2010-12-10T17:40:44Z</time>
      </trkpt>
      <trkpt lat="49.21119" lon="-0.37068">
        <ele>109</ele>
        <time>2010-12-10T17:40:47Z</time>
      </trkpt>
      <trkpt lat="49.21123" lon="-0.37065">
        <ele>109</ele>
        <time>2010-12-10T17:40:49Z</time>
      </trkpt>
      <trkpt lat="49.21128" lon="-0.37065">
        <ele>109</ele>
        <time>2010-12-10T17:40:51Z</time>
      </trkpt>
      <trkpt lat="49.21135" lon="-0.37067">
        <ele>109</ele>
        <time>2010-12-10T17:40:54Z</time>
      </trkpt>
      <trkpt lat="49.21141" lon="-0.37068">
        <ele>109</ele>
        <time>2010-12-10T17:40:57Z</time>
      </trkpt>
      <trkpt lat="49.21147" lon="-0.3707">
        <ele>109</ele>
        <time>2010-12-10T17:40:59Z</time>
      </trkpt>
      <trkpt lat="49.21153" lon="-0.37069">
        <ele>108</ele>
        <time>2010-12-10T17:41:02Z</time>
      </trkpt>
      <trkpt lat="49.21159" lon="-0.37068">
        <ele>108</ele>
        <time>2010-12-10T17:41:05Z</time>
      </trkpt>
      <trkpt lat="49.21164" lon="-0.37067">
        <ele>108</ele>
        <time>2010-12-10T17:41:07Z</time>
      </trkpt>
      <trkpt lat="49.21169" lon="-0.37066">
        <ele>108</ele>
        <time>2010-12-10T17:41:09Z</time>
      </trkpt>
      <trkpt lat="49.21174" lon="-0.37067">
        <ele>108</ele>
        <time>2010-12-10T17:41:12Z</time>
      </trkpt>
      <trkpt lat="49.2118" lon="-0.37069">
        <ele>108</ele>
        <time>2010-12-10T17:41:15Z</time>
      </trkpt>
      <trkpt lat="49.21185" lon="-0.3707">
        <ele>108</ele>
        <time>2010-12-10T17:41:18Z</time>
      </trkpt>
      <trkpt lat="49.2119" lon="-0.37072">
        <ele>108</ele>
        <time>2010-12-10T17:41:22Z</time>
      </trkpt>
      <trkpt lat="49.21195" lon="-0.37072">
        <ele>109</ele>
        <time>2010-12-10T17:41:26Z</time>
      </trkpt>
      <trkpt lat="49.212" lon="-0.37071">
        <ele>109</ele>
        <time>2010-12-10T17:41:31Z</time>
      </trkpt>
      <trkpt lat="49.21205" lon="-0.37072">
        <ele>110</ele>
        <time>2010-12-10T17:41:37Z</time>
      </trkpt>
      <trkpt lat="49.2121" lon="-0.37073">
        <ele>110</ele>
        <time>2010-12-10T17:41:45Z</time>
      </trkpt>
    </trkseg>
  </trk>
</gpx>